Observation data for Colorado City on 05/24/2020      Previous  Date  Next       Current Mesonet Observations  Soil Data  Daily Summary Page  Observations in Plain Language
KCO2 240500Z 07016KT 20/14 A2986 RMK A01 T01980136  RH  068%=      5-min Rain = 0
KCO2 240501Z 07014KT 20/14 A2986 RMK A01 T01980136  RH  067%=      5-min Rain = 0
KCO2 240502Z 07016G21KT 20/14 A2986 RMK A01 T01980136  RH  067%=      5-min Rain = 0
KCO2 240503Z 08015G20KT 20/14 A2986 RMK A01 T01990135  RH  067%=      5-min Rain = 0
KCO2 240504Z 08013KT 20/14 A2986 RMK A01 T01990135  RH  066%=      5-min Rain = 0
KCO2 240505Z 09011G16KT 20/13 A2987 RMK A01 T01990134  RH  066%=      5-min Rain = 0
KCO2 240506Z 09012KT 20/13 A2987 RMK A01 T01990134  RH  066%=      5-min Rain = 0
KCO2 240507Z 08014KT 20/13 A2987 RMK A01 T01990133  RH  065%=      5-min Rain = 0
KCO2 240508Z 08013KT 20/13 A2987 RMK A01 T02010132  RH  065%=      5-min Rain = 0
KCO2 240509Z 08012KT 20/13 A2987 RMK A01 T02020133  RH  064%=      5-min Rain = 0
KCO2 240510Z 09010KT 20/13 A2987 RMK A01 T02020132  RH  064%=      5-min Rain = 0
KCO2 240511Z 08010KT 20/13 A2987 RMK A01 T02010132  RH  064%=      5-min Rain = 0
KCO2 240512Z 09009KT 20/13 A2987 RMK A01 T02010132  RH  064%=      5-min Rain = 0
KCO2 240513Z 10008KT 20/13 A2987 RMK A01 T02010133  RH  065%=      5-min Rain = 0
KCO2 240514Z 09008KT 20/13 A2987 RMK A01 T02000133  RH  065%=      5-min Rain = 0
KCO2 240515Z 08010KT 20/13 A2987 RMK A01 T02000133  RH  065%=      5-min Rain = 0
KCO2 240516Z 07008KT 20/13 A2987 RMK A01 T02000132  RH  065%=      5-min Rain = 0
KCO2 240517Z 07010KT 20/13 A2987 RMK A01 T02000132  RH  065%=      5-min Rain = 0
KCO2 240518Z 07010KT 20/13 A2986 RMK A01 T02000131  RH  065%=      5-min Rain = 0
KCO2 240519Z 07010KT 20/13 A2986 RMK A01 T02000131  RH  065%=      5-min Rain = 0
KCO2 240520Z 08009KT 20/13 A2986 RMK A01 T02000131  RH  064%=      5-min Rain = 0
KCO2 240521Z 07009KT 20/13 A2986 RMK A01 T02000131  RH  064%=      5-min Rain = 0
KCO2 240522Z 08011KT 20/13 A2986 RMK A01 T02000131  RH  064%=      5-min Rain = 0
KCO2 240523Z 08010KT 20/13 A2986 RMK A01 T02010131  RH  064%=      5-min Rain = 0
KCO2 240524Z 08009KT 20/13 A2986 RMK A01 T02010130  RH  064%=      5-min Rain = 0
KCO2 240525Z 09008KT 20/13 A2986 RMK A01 T02010130  RH  063%=      5-min Rain = 0
KCO2 240526Z 09008KT 20/13 A2986 RMK A01 T02020130  RH  063%=      5-min Rain = 0
KCO2 240527Z 09010KT 20/13 A2987 RMK A01 T02020129  RH  063%=      5-min Rain = 0
KCO2 240528Z 10011KT 20/13 A2987 RMK A01 T02030129  RH  062%=      5-min Rain = 0
KCO2 240529Z 09009KT 20/13 A2986 RMK A01 T02040129  RH  062%=      5-min Rain = 0
KCO2 240530Z 07009KT 20/13 A2986 RMK A01 T02040128  RH  062%=      5-min Rain = 0
KCO2 240531Z 07008KT 20/13 A2986 RMK A01 T02040128  RH  062%=      5-min Rain = 0
KCO2 240532Z 07008KT 20/13 A2986 RMK A01 T02040128  RH  062%=      5-min Rain = 0
KCO2 240533Z 08007KT 20/13 A2986 RMK A01 T02040129  RH  062%=      5-min Rain = 0
KCO2 240534Z 07007KT 20/13 A2986 RMK A01 T02040129  RH  062%=      5-min Rain = 0
KCO2 240535Z 08006KT 20/13 A2986 RMK A01 T02030129  RH  062%=      5-min Rain = 0
KCO2 240536Z 09006KT 20/13 A2986 RMK A01 T02030129  RH  062%=      5-min Rain = 0
KCO2 240537Z 10005KT 20/13 A2986 RMK A01 T02030129  RH  062%=      5-min Rain = 0
KCO2 240538Z 10004KT 20/13 A2986 RMK A01 T02020129  RH  063%=      5-min Rain = 0
KCO2 240539Z 10003KT 20/13 A2986 RMK A01 T02010129  RH  063%=      5-min Rain = 0
KCO2 240540Z 10004KT 20/13 A2986 RMK A01 T02000129  RH  063%=      5-min Rain = 0
KCO2 240541Z 11003KT 20/13 A2986 RMK A01 T01990129  RH  064%=      5-min Rain = 0
KCO2 240542Z 11004KT 20/13 A2986 RMK A01 T01980129  RH  064%=      5-min Rain = 0
KCO2 240543Z 12004KT 20/13 A2986 RMK A01 T01980129  RH  064%=      5-min Rain = 0
KCO2 240544Z 12005KT 20/13 A2986 RMK A01 T01970129  RH  065%=      5-min Rain = 0
KCO2 240545Z 12005KT 20/13 A2986 RMK A01 T01960129  RH  065%=      5-min Rain = 0
KCO2 240546Z 12005KT 20/13 A2986 RMK A01 T01950129  RH  066%=      5-min Rain = 0
KCO2 240547Z 13005KT 19/13 A2986 RMK A01 T01940129  RH  066%=      5-min Rain = 0
KCO2 240548Z 12006KT 19/13 A2986 RMK A01 T01930129  RH  066%=      5-min Rain = 0
KCO2 240549Z 11007KT 19/13 A2986 RMK A01 T01930129  RH  067%=      5-min Rain = 0
KCO2 240550Z 11007KT 19/13 A2986 RMK A01 T01920129  RH  067%=      5-min Rain = 0
KCO2 240551Z 11007KT 19/13 A2986 RMK A01 T01920129  RH  067%=      5-min Rain = 0
KCO2 240552Z 11007KT 19/13 A2986 RMK A01 T01920129  RH  067%=      5-min Rain = 0
KCO2 240553Z 11007KT 19/13 A2986 RMK A01 T01930129  RH  067%=      5-min Rain = 0
KCO2 240554Z 10007KT 19/13 A2986 RMK A01 T01920130  RH  067%=      5-min Rain = 0
KCO2 240555Z 09008KT 19/13 A2986 RMK A01 T01920130  RH  067%=      5-min Rain = 0
KCO2 240556Z 10008KT 19/13 A2986 RMK A01 T01920130  RH  067%=      5-min Rain = 0
KCO2 240557Z 10008KT 19/13 A2986 RMK A01 T01930130  RH  067%=      5-min Rain = 0
KCO2 240558Z 10008KT 19/13 A2986 RMK A01 T01930130  RH  067%=      5-min Rain = 0
KCO2 240559Z 10006KT 19/13 A2986 RMK A01 T01940131  RH  067%=      5-min Rain = 0
KCO2 240600Z 10006KT 19/13 A2986 RMK A01 T01940131  RH  067%=      5-min Rain = 0
KCO2 240601Z 11006KT 19/13 A2986 RMK A01 T01930131  RH  067%=      5-min Rain = 0
KCO2 240602Z 11006KT 19/13 A2986 RMK A01 T01920131  RH  068%=      5-min Rain = 0
KCO2 240603Z 11005KT 19/13 A2986 RMK A01 T01910131  RH  068%=      5-min Rain = 0
KCO2 240604Z 11005KT 19/13 A2986 RMK A01 T01900131  RH  069%=      5-min Rain = 0
KCO2 240605Z 11005KT 19/13 A2986 RMK A01 T01890131  RH  069%=      5-min Rain = 0
KCO2 240606Z 11005KT 19/13 A2986 RMK A01 T01890131  RH  069%=      5-min Rain = 0
KCO2 240607Z 11005KT 19/13 A2986 RMK A01 T01880131  RH  070%=      5-min Rain = 0
KCO2 240608Z 12004KT 19/13 A2986 RMK A01 T01870132  RH  070%=      5-min Rain = 0
KCO2 240609Z 14004KT 19/13 A2986 RMK A01 T01860132  RH  071%=      5-min Rain = 0
KCO2 240610Z 14005KT 19/13 A2986 RMK A01 T01850132  RH  071%=      5-min Rain = 0
KCO2 240611Z 13005KT 18/13 A2986 RMK A01 T01830132  RH  072%=      5-min Rain = 0
KCO2 240612Z 12005KT 18/13 A2986 RMK A01 T01830132  RH  072%=      5-min Rain = 0
KCO2 240613Z 11006KT 18/13 A2986 RMK A01 T01820132  RH  072%=      5-min Rain = 0
KCO2 240614Z 10006KT 18/13 A2986 RMK A01 T01830132  RH  072%=      5-min Rain = 0
KCO2 240615Z 10006KT 18/13 A2986 RMK A01 T01830132  RH  072%=      5-min Rain = 0
KCO2 240616Z 10005KT 18/13 A2986 RMK A01 T01840132  RH  072%=      5-min Rain = 0
KCO2 240617Z 10007KT 18/13 A2986 RMK A01 T01840133  RH  072%=      5-min Rain = 0
KCO2 240618Z 11006KT 19/13 A2986 RMK A01 T01850133  RH  072%=      5-min Rain = 0
KCO2 240619Z 11007KT 19/13 A2986 RMK A01 T01850133  RH  071%=      5-min Rain = 0
KCO2 240620Z 11006KT 19/13 A2986 RMK A01 T01860133  RH  071%=      5-min Rain = 0
KCO2 240621Z 11006KT 19/13 A2986 RMK A01 T01850133  RH  072%=      5-min Rain = 0
KCO2 240622Z 11006KT 19/13 A2986 RMK A01 T01850133  RH  072%=      5-min Rain = 0
KCO2 240623Z 12006KT 18/13 A2986 RMK A01 T01840133  RH  072%=      5-min Rain = 0
KCO2 240624Z 12006KT 18/13 A2986 RMK A01 T01840134  RH  072%=      5-min Rain = 0
KCO2 240625Z 12006KT 18/13 A2986 RMK A01 T01830133  RH  073%=      5-min Rain = 0
KCO2 240626Z 11007KT 18/13 A2986 RMK A01 T01830134  RH  073%=      5-min Rain = 0
KCO2 240627Z 10007KT 18/13 A2986 RMK A01 T01830133  RH  073%=      5-min Rain = 0
KCO2 240628Z 10008KT 18/13 A2986 RMK A01 T01830133  RH  073%=      5-min Rain = 0
KCO2 240629Z 10007KT 18/13 A2986 RMK A01 T01840133  RH  072%=      5-min Rain = 0
KCO2 240630Z 11007KT 19/13 A2986 RMK A01 T01850134  RH  072%=      5-min Rain = 0
KCO2 240631Z 13006KT 19/13 A2986 RMK A01 T01850134  RH  072%=      5-min Rain = 0
KCO2 240632Z 13006KT 19/13 A2986 RMK A01 T01850134  RH  072%=      5-min Rain = 0
KCO2 240633Z 13007KT 18/13 A2986 RMK A01 T01840134  RH  073%=      5-min Rain = 0
KCO2 240634Z 12007KT 18/13 A2986 RMK A01 T01840134  RH  073%=      5-min Rain = 0
KCO2 240635Z 11007KT 18/14 A2986 RMK A01 T01840135  RH  073%=      5-min Rain = 0
KCO2 240636Z 11007KT 18/13 A2986 RMK A01 T01830134  RH  073%=      5-min Rain = 0
KCO2 240637Z 10007KT 18/13 A2986 RMK A01 T01830134  RH  073%=      5-min Rain = 0
KCO2 240638Z 11006KT 18/13 A2986 RMK A01 T01830134  RH  073%=      5-min Rain = 0
KCO2 240639Z 13006KT 18/13 A2986 RMK A01 T01830134  RH  073%=      5-min Rain = 0
KCO2 240640Z 14006KT 18/13 A2986 RMK A01 T01830134  RH  073%=      5-min Rain = 0
KCO2 240641Z 14006KT 18/13 A2986 RMK A01 T01820134  RH  074%=      5-min Rain = 0
KCO2 240642Z 13006KT 18/13 A2986 RMK A01 T01810134  RH  074%=      5-min Rain = 0
KCO2 240643Z 12005KT 18/13 A2986 RMK A01 T01810134  RH  074%=      5-min Rain = 0
KCO2 240644Z 12005KT 18/13 A2986 RMK A01 T01810134  RH  074%=      5-min Rain = 0
KCO2 240645Z 13005KT 18/14 A2986 RMK A01 T01810135  RH  074%=      5-min Rain = 0
KCO2 240646Z 14005KT 18/14 A2986 RMK A01 T01810135  RH  074%=      5-min Rain = 0
KCO2 240647Z 14005KT 18/14 A2986 RMK A01 T01810135  RH  074%=      5-min Rain = 0
KCO2 240648Z 13005KT 18/14 A2986 RMK A01 T01810135  RH  075%=      5-min Rain = 0
KCO2 240649Z 13005KT 18/14 A2986 RMK A01 T01800135  RH  075%=      5-min Rain = 0
KCO2 240650Z 14005KT 18/14 A2986 RMK A01 T01800135  RH  075%=      5-min Rain = 0
KCO2 240651Z 14006KT 18/14 A2986 RMK A01 T01790135  RH  075%=      5-min Rain = 0
KCO2 240652Z 14005KT 18/14 A2986 RMK A01 T01790135  RH  076%=      5-min Rain = 0
KCO2 240653Z 14005KT 18/14 A2986 RMK A01 T01790135  RH  076%=      5-min Rain = 0
KCO2 240654Z 15005KT 18/14 A2986 RMK A01 T01780135  RH  076%=      5-min Rain = 0
KCO2 240655Z 15005KT 18/14 A2986 RMK A01 T01780135  RH  076%=      5-min Rain = 0
KCO2 240656Z 16005KT 18/14 A2987 RMK A01 T01780135  RH  076%=      5-min Rain = 0
KCO2 240657Z 16004KT 18/14 A2987 RMK A01 T01780135  RH  076%=      5-min Rain = 0
KCO2 240658Z 16005KT 18/14 A2987 RMK A01 T01780135  RH  076%=      5-min Rain = 0
KCO2 240659Z 16004KT 18/14 A2987 RMK A01 T01780136  RH  076%=      5-min Rain = 0
KCO2 240700Z 15004KT 18/14 A2987 RMK A01 T01780136  RH  076%=      5-min Rain = 0
KCO2 240701Z 15004KT 18/14 A2986 RMK A01 T01780136  RH  076%=      5-min Rain = 0
KCO2 240702Z 14004KT 18/14 A2986 RMK A01 T01790136  RH  076%=      5-min Rain = 0
KCO2 240703Z 14004KT 18/14 A2986 RMK A01 T01790136  RH  076%=      5-min Rain = 0
KCO2 240704Z 14004KT 18/14 A2986 RMK A01 T01780136  RH  076%=      5-min Rain = 0
KCO2 240705Z 14005KT 18/14 A2986 RMK A01 T01780136  RH  077%=      5-min Rain = 0
KCO2 240706Z 14005KT 18/14 A2986 RMK A01 T01770136  RH  077%=      5-min Rain = 0
KCO2 240707Z 14005KT 18/14 A2986 RMK A01 T01760136  RH  077%=      5-min Rain = 0
KCO2 240708Z 14005KT 18/14 A2986 RMK A01 T01760137  RH  078%=      5-min Rain = 0
KCO2 240709Z 14005KT 18/14 A2987 RMK A01 T01760137  RH  078%=      5-min Rain = 0
KCO2 240710Z 15005KT 18/14 A2987 RMK A01 T01760137  RH  078%=      5-min Rain = 0
KCO2 240711Z 15004KT 18/14 A2986 RMK A01 T01760137  RH  078%=      5-min Rain = 0
KCO2 240712Z 15004KT 18/14 A2986 RMK A01 T01750137  RH  078%=      5-min Rain = 0
KCO2 240713Z 15004KT 18/14 A2987 RMK A01 T01750137  RH  078%=      5-min Rain = 0
KCO2 240714Z 15003KT 18/14 A2987 RMK A01 T01750138  RH  079%=      5-min Rain = 0
KCO2 240715Z 15003KT 18/14 A2987 RMK A01 T01750138  RH  079%=      5-min Rain = 0
KCO2 240716Z 15004KT 17/14 A2986 RMK A01 T01740138  RH  079%=      5-min Rain = 0
KCO2 240717Z 14004KT 17/14 A2986 RMK A01 T01740138  RH  079%=      5-min Rain = 0
KCO2 240718Z 14004KT 17/14 A2986 RMK A01 T01740138  RH  079%=      5-min Rain = 0
KCO2 240719Z 13004KT 17/14 A2986 RMK A01 T01740138  RH  079%=      5-min Rain = 0
KCO2 240720Z 13004KT 17/14 A2986 RMK A01 T01740137  RH  079%=      5-min Rain = 0
KCO2 240721Z 14005KT 17/14 A2986 RMK A01 T01740137  RH  079%=      5-min Rain = 0
KCO2 240722Z 14005KT 17/14 A2986 RMK A01 T01740137  RH  079%=      5-min Rain = 0
KCO2 240723Z 13004KT 17/14 A2986 RMK A01 T01740137  RH  079%=      5-min Rain = 0
KCO2 240724Z 12004KT 18/14 A2986 RMK A01 T01750138  RH  079%=      5-min Rain = 0
KCO2 240725Z 12004KT 18/14 A2985 RMK A01 T01750137  RH  078%=      5-min Rain = 0
KCO2 240726Z 12004KT 18/14 A2985 RMK A01 T01760138  RH  078%=      5-min Rain = 0
KCO2 240727Z 12004KT 18/14 A2985 RMK A01 T01760137  RH  078%=      5-min Rain = 0
KCO2 240728Z 11004KT 18/14 A2985 RMK A01 T01760138  RH  078%=      5-min Rain = 0
KCO2 240729Z 11005KT 18/14 A2985 RMK A01 T01770138  RH  078%=      5-min Rain = 0
KCO2 240730Z 12005KT 18/14 A2985 RMK A01 T01770138  RH  078%=      5-min Rain = 0
KCO2 240731Z 11005KT 18/14 A2985 RMK A01 T01770138  RH  078%=      5-min Rain = 0
KCO2 240732Z 11005KT 18/14 A2985 RMK A01 T01770138  RH  078%=      5-min Rain = 0
KCO2 240733Z 12006KT 18/14 A2985 RMK A01 T01770138  RH  078%=      5-min Rain = 0
KCO2 240734Z 12006KT 18/14 A2985 RMK A01 T01770138  RH  078%=      5-min Rain = 0
KCO2 240735Z 12006KT 18/14 A2985 RMK A01 T01770138  RH  078%=      5-min Rain = 0
KCO2 240736Z 12005KT 18/14 A2985 RMK A01 T01770138  RH  078%=      5-min Rain = 0
KCO2 240737Z 12005KT 18/14 A2985 RMK A01 T01760138  RH  078%=      5-min Rain = 0
KCO2 240738Z 13005KT 18/14 A2985 RMK A01 T01760138  RH  078%=      5-min Rain = 0
KCO2 240739Z 14004KT 18/14 A2985 RMK A01 T01770139  RH  078%=      5-min Rain = 0
KCO2 240740Z 14004KT 18/14 A2985 RMK A01 T01760138  RH  079%=      5-min Rain = 0
KCO2 240741Z 15004KT 18/14 A2985 RMK A01 T01750138  RH  079%=      5-min Rain = 0
KCO2 240742Z 14004KT 17/14 A2985 RMK A01 T01740138  RH  079%=      5-min Rain = 0
KCO2 240743Z 15004KT 17/14 A2985 RMK A01 T01740138  RH  079%=      5-min Rain = 0
KCO2 240744Z 16004KT 17/14 A2985 RMK A01 T01740138  RH  079%=      5-min Rain = 0
KCO2 240745Z 16004KT 18/14 A2985 RMK A01 T01750138  RH  079%=      5-min Rain = 0
KCO2 240746Z 15004KT 18/14 A2985 RMK A01 T01750138  RH  079%=      5-min Rain = 0
KCO2 240747Z 16004KT 18/14 A2985 RMK A01 T01750138  RH  079%=      5-min Rain = 0
KCO2 240748Z 17004KT 18/14 A2985 RMK A01 T01750138  RH  079%=      5-min Rain = 0
KCO2 240749Z 17003KT 18/14 A2985 RMK A01 T01750138  RH  079%=      5-min Rain = 0
KCO2 240750Z 17004KT 17/14 A2985 RMK A01 T01740138  RH  079%=      5-min Rain = 0
KCO2 240751Z 17004KT 17/14 A2985 RMK A01 T01740138  RH  079%=      5-min Rain = 0
KCO2 240752Z 18004KT 17/14 A2985 RMK A01 T01730138  RH  080%=      5-min Rain = 0
KCO2 240753Z 18003KT 17/14 A2985 RMK A01 T01730139  RH  080%=      5-min Rain = 0
KCO2 240754Z 17004KT 17/14 A2985 RMK A01 T01720139  RH  081%=      5-min Rain = 0
KCO2 240755Z 17004KT 17/14 A2985 RMK A01 T01710139  RH  081%=      5-min Rain = 0
KCO2 240756Z 17004KT 17/14 A2985 RMK A01 T01710139  RH  081%=      5-min Rain = 0
KCO2 240757Z 17004KT 17/14 A2985 RMK A01 T01700138  RH  081%=      5-min Rain = 0
KCO2 240758Z 16004KT 17/14 A2986 RMK A01 T01700138  RH  082%=      5-min Rain = 0
KCO2 240759Z 16004KT 17/14 A2986 RMK A01 T01700139  RH  082%=      5-min Rain = 0
KCO2 240800Z 16004KT 17/14 A2986 RMK A01 T01700139  RH  082%=      5-min Rain = 0
KCO2 240801Z 16003KT 17/14 A2986 RMK A01 T01700139  RH  082%=      5-min Rain = 0
KCO2 240802Z 16003KT 17/14 A2986 RMK A01 T01700139  RH  082%=      5-min Rain = 0
KCO2 240803Z 14003KT 17/14 A2986 RMK A01 T01690139  RH  082%=      5-min Rain = 0
KCO2 240804Z 15003KT 17/14 A2986 RMK A01 T01690140  RH  083%=      5-min Rain = 0
KCO2 240805Z 16004KT 17/14 A2986 RMK A01 T01700141  RH  083%=      5-min Rain = 0
KCO2 240806Z 16004KT 17/14 A2986 RMK A01 T01720141  RH  082%=      5-min Rain = 0
KCO2 240807Z 16004KT 17/14 A2986 RMK A01 T01720141  RH  082%=      5-min Rain = 0
KCO2 240808Z 16004KT 17/14 A2986 RMK A01 T01720140  RH  081%=      5-min Rain = 0
KCO2 240809Z 16004KT 17/14 A2986 RMK A01 T01720140  RH  082%=      5-min Rain = 0
KCO2 240810Z 16004KT 17/14 A2986 RMK A01 T01710140  RH  082%=      5-min Rain = 0
KCO2 240811Z 16004KT 17/14 A2986 RMK A01 T01700140  RH  083%=      5-min Rain = 0
KCO2 240812Z 16004KT 17/14 A2986 RMK A01 T01690140  RH  083%=      5-min Rain = 0
KCO2 240813Z 15004KT 17/14 A2986 RMK A01 T01690140  RH  083%=      5-min Rain = 0
KCO2 240814Z 16003KT 17/14 A2986 RMK A01 T01690140  RH  083%=      5-min Rain = 0
KCO2 240815Z 16004KT 17/14 A2986 RMK A01 T01680139  RH  083%=      5-min Rain = 0
KCO2 240816Z 15004KT 17/14 A2986 RMK A01 T01670140  RH  084%=      5-min Rain = 0
KCO2 240817Z 15004KT 17/14 A2986 RMK A01 T01670140  RH  084%=      5-min Rain = 0
KCO2 240818Z 15004KT 17/14 A2986 RMK A01 T01680140  RH  084%=      5-min Rain = 0
KCO2 240819Z 15004KT 17/14 A2986 RMK A01 T01680140  RH  084%=      5-min Rain = 0
KCO2 240820Z 15004KT 17/14 A2986 RMK A01 T01680141  RH  084%=      5-min Rain = 0
KCO2 240821Z 15004KT 17/14 A2986 RMK A01 T01680140  RH  084%=      5-min Rain = 0
KCO2 240822Z 14004KT 17/14 A2986 RMK A01 T01680141  RH  084%=      5-min Rain = 0
KCO2 240823Z 14004KT 17/14 A2986 RMK A01 T01680141  RH  084%=      5-min Rain = 0
KCO2 240824Z 14004KT 17/14 A2986 RMK A01 T01690141  RH  084%=      5-min Rain = 0
KCO2 240825Z 14004KT 17/14 A2986 RMK A01 T01680141  RH  084%=      5-min Rain = 0
KCO2 240826Z 14004KT 17/14 A2986 RMK A01 T01690141  RH  084%=      5-min Rain = 0
KCO2 240827Z 14004KT 17/14 A2986 RMK A01 T01680141  RH  084%=      5-min Rain = 0
KCO2 240828Z 14004KT 17/14 A2986 RMK A01 T01690141  RH  084%=      5-min Rain = 0
KCO2 240829Z 14003KT 17/14 A2986 RMK A01 T01690142  RH  084%=      5-min Rain = 0
KCO2 240830Z 15003KT 17/14 A2986 RMK A01 T01680142  RH  084%=      5-min Rain = 0
KCO2 240831Z 15004KT 17/14 A2986 RMK A01 T01680142  RH  085%=      5-min Rain = 0
KCO2 240832Z 15003KT 17/14 A2986 RMK A01 T01680142  RH  085%=      5-min Rain = 0
KCO2 240833Z 16003KT 17/14 A2986 RMK A01 T01680142  RH  084%=      5-min Rain = 0
KCO2 240834Z 16003KT 17/14 A2986 RMK A01 T01680142  RH  085%=      5-min Rain = 0
KCO2 240835Z 16003KT 17/14 A2986 RMK A01 T01680142  RH  085%=      5-min Rain = 0
KCO2 240836Z 15004KT 17/14 A2986 RMK A01 T01680142  RH  085%=      5-min Rain = 0
KCO2 240837Z 15004KT 17/14 A2986 RMK A01 T01680143  RH  085%=      5-min Rain = 0
KCO2 240838Z 15004KT 17/14 A2986 RMK A01 T01680143  RH  085%=      5-min Rain = 0
KCO2 240839Z 16004KT 17/14 A2986 RMK A01 T01690143  RH  085%=      5-min Rain = 0
KCO2 240840Z 16005KT 17/14 A2986 RMK A01 T01700144  RH  085%=      5-min Rain = 0
KCO2 240841Z 15005KT 17/14 A2986 RMK A01 T01700143  RH  084%=      5-min Rain = 0
KCO2 240842Z 16005KT 17/14 A2986 RMK A01 T01700142  RH  084%=      5-min Rain = 0
KCO2 240843Z 16005KT 17/14 A2986 RMK A01 T01690141  RH  084%=      5-min Rain = 0
KCO2 240844Z 16005KT 17/14 A2986 RMK A01 T01680141  RH  084%=      5-min Rain = 0
KCO2 240845Z 16004KT 17/14 A2986 RMK A01 T01670141  RH  085%=      5-min Rain = 0
KCO2 240846Z 17004KT 17/14 A2986 RMK A01 T01660142  RH  086%=      5-min Rain = 0
KCO2 240847Z 17004KT 17/14 A2985 RMK A01 T01650142  RH  086%=      5-min Rain = 0
KCO2 240848Z 17005KT 17/14 A2985 RMK A01 T01650142  RH  086%=      5-min Rain = 0
KCO2 240849Z 17004KT 17/14 A2986 RMK A01 T01650142  RH  087%=      5-min Rain = 0
KCO2 240850Z 17004KT 16/14 A2986 RMK A01 T01640142  RH  087%=      5-min Rain = 0
KCO2 240851Z 17004KT 17/14 A2986 RMK A01 T01650142  RH  087%=      5-min Rain = 0
KCO2 240852Z 16004KT 17/14 A2986 RMK A01 T01650142  RH  086%=      5-min Rain = 0
KCO2 240853Z 16005KT 16/14 A2986 RMK A01 T01640140  RH  086%=      5-min Rain = 0
KCO2 240854Z 16005KT 16/14 A2986 RMK A01 T01630140  RH  086%=      5-min Rain = 0
KCO2 240855Z 15005KT 16/14 A2986 RMK A01 T01620140  RH  087%=      5-min Rain = 0
KCO2 240856Z 15005KT 16/14 A2986 RMK A01 T01620140  RH  087%=      5-min Rain = 0
KCO2 240857Z 15005KT 16/14 A2986 RMK A01 T01610140  RH  087%=      5-min Rain = 0
KCO2 240858Z 15005KT 16/14 A2985 RMK A01 T01610140  RH  087%=      5-min Rain = 0
KCO2 240859Z 15005KT 16/14 A2985 RMK A01 T01610140  RH  087%=      5-min Rain = 0
KCO2 240900Z 15005KT 16/14 A2985 RMK A01 T01610140  RH  087%=      5-min Rain = 0
KCO2 240901Z 14005KT 16/14 A2985 RMK A01 T01610140  RH  087%=      5-min Rain = 0
KCO2 240902Z 14005KT 16/14 A2985 RMK A01 T01610140  RH  087%=      5-min Rain = 0
KCO2 240903Z 14006KT 16/14 A2985 RMK A01 T01610141  RH  088%=      5-min Rain = 0
KCO2 240904Z 15006KT 16/14 A2985 RMK A01 T01620141  RH  088%=      5-min Rain = 0
KCO2 240905Z 15006KT 16/14 A2985 RMK A01 T01620142  RH  088%=      5-min Rain = 0
KCO2 240906Z 15006KT 16/14 A2985 RMK A01 T01620142  RH  088%=      5-min Rain = 0
KCO2 240907Z 15005KT 16/14 A2985 RMK A01 T01620142  RH  088%=      5-min Rain = 0
KCO2 240908Z 15006KT 16/14 A2985 RMK A01 T01620143  RH  088%=      5-min Rain = 0
KCO2 240909Z 15006KT 16/14 A2985 RMK A01 T01630143  RH  088%=      5-min Rain = 0
KCO2 240910Z 15006KT 16/14 A2985 RMK A01 T01630144  RH  088%=      5-min Rain = 0
KCO2 240911Z 15005KT 16/14 A2985 RMK A01 T01640144  RH  088%=      5-min Rain = 0
KCO2 240912Z 15005KT 16/14 A2985 RMK A01 T01640144  RH  088%=      5-min Rain = 0
KCO2 240913Z 14006KT 17/15 A2985 RMK A01 T01650145  RH  088%=      5-min Rain = 0
KCO2 240914Z 14005KT 17/14 A2985 RMK A01 T01660144  RH  087%=      5-min Rain = 0
KCO2 240915Z 14006KT 17/14 A2985 RMK A01 T01660144  RH  087%=      5-min Rain = 0
KCO2 240916Z 14005KT 17/14 A2985 RMK A01 T01670144  RH  087%=      5-min Rain = 0
KCO2 240917Z 14005KT 17/15 A2985 RMK A01 T01680145  RH  086%=      5-min Rain = 0
KCO2 240918Z 14005KT 17/14 A2985 RMK A01 T01680144  RH  086%=      5-min Rain = 0
KCO2 240919Z 14005KT 17/14 A2985 RMK A01 T01680144  RH  086%=      5-min Rain = 0
KCO2 240920Z 13005KT 17/14 A2985 RMK A01 T01680144  RH  086%=      5-min Rain = 0
KCO2 240921Z 12005KT 17/14 A2985 RMK A01 T01680144  RH  086%=      5-min Rain = 0
KCO2 240922Z 12005KT 17/14 A2985 RMK A01 T01680144  RH  086%=      5-min Rain = 0
KCO2 240923Z 12005KT 17/14 A2985 RMK A01 T01670144  RH  086%=      5-min Rain = 0
KCO2 240924Z 13005KT 17/14 A2985 RMK A01 T01670144  RH  086%=      5-min Rain = 0
KCO2 240925Z 13005KT 17/14 A2985 RMK A01 T01660143  RH  086%=      5-min Rain = 0
KCO2 240926Z 12005KT 17/14 A2985 RMK A01 T01670143  RH  086%=      5-min Rain = 0
KCO2 240927Z 12005KT 17/14 A2985 RMK A01 T01670143  RH  086%=      5-min Rain = 0
KCO2 240928Z 12005KT 17/14 A2985 RMK A01 T01660143  RH  086%=      5-min Rain = 0
KCO2 240929Z 12005KT 17/14 A2985 RMK A01 T01660143  RH  086%=      5-min Rain = 0
KCO2 240930Z 12005KT 17/14 A2985 RMK A01 T01660143  RH  086%=      5-min Rain = 0
KCO2 240931Z 12005KT 17/14 A2985 RMK A01 T01660143  RH  086%=      5-min Rain = 0
KCO2 240932Z 12005KT 17/14 A2985 RMK A01 T01660143  RH  086%=      5-min Rain = 0
KCO2 240933Z 12005KT 17/14 A2985 RMK A01 T01660143  RH  086%=      5-min Rain = 0
KCO2 240934Z 12005KT 17/14 A2985 RMK A01 T01650142  RH  086%=      5-min Rain = 0
KCO2 240935Z 13005KT 17/14 A2985 RMK A01 T01650143  RH  087%=      5-min Rain = 0
KCO2 240936Z 13005KT 17/14 A2985 RMK A01 T01650142  RH  087%=      5-min Rain = 0
KCO2 240937Z 12005KT 16/14 A2984 RMK A01 T01640142  RH  087%=      5-min Rain = 0
KCO2 240938Z 12005KT 16/14 A2984 RMK A01 T01640142  RH  087%=      5-min Rain = 0
KCO2 240939Z 12005KT 16/14 A2984 RMK A01 T01640142  RH  087%=      5-min Rain = 0
KCO2 240940Z 12005KT 17/14 A2984 RMK A01 T01650142  RH  087%=      5-min Rain = 0
KCO2 240941Z 11005KT 17/14 A2984 RMK A01 T01660142  RH  086%=      5-min Rain = 0
KCO2 240942Z 12005KT 17/14 A2984 RMK A01 T01660142  RH  086%=      5-min Rain = 0
KCO2 240943Z 12005KT 17/14 A2984 RMK A01 T01670142  RH  085%=      5-min Rain = 0
KCO2 240944Z 12005KT 17/14 A2984 RMK A01 T01670142  RH  085%=      5-min Rain = 0
KCO2 240945Z 12005KT 17/14 A2985 RMK A01 T01670142  RH  085%=      5-min Rain = 0
KCO2 240946Z 11005KT 17/14 A2984 RMK A01 T01660142  RH  085%=      5-min Rain = 0
KCO2 240947Z 10005KT 17/14 A2984 RMK A01 T01650141  RH  085%=      5-min Rain = 0
KCO2 240948Z 10005KT 17/14 A2984 RMK A01 T01650140  RH  085%=      5-min Rain = 0
KCO2 240949Z 10005KT 16/14 A2984 RMK A01 T01640139  RH  085%=      5-min Rain = 0
KCO2 240950Z 10005KT 16/14 A2984 RMK A01 T01630139  RH  086%=      5-min Rain = 0
KCO2 240951Z 10005KT 16/14 A2984 RMK A01 T01620139  RH  086%=      5-min Rain = 0
KCO2 240952Z 10005KT 16/14 A2984 RMK A01 T01610139  RH  087%=      5-min Rain = 0
KCO2 240953Z 10005KT 16/14 A2984 RMK A01 T01610139  RH  087%=      5-min Rain = 0
KCO2 240954Z 10005KT 16/14 A2984 RMK A01 T01600139  RH  087%=      5-min Rain = 0
KCO2 240955Z 09005KT 16/14 A2984 RMK A01 T01600139  RH  087%=      5-min Rain = 0
KCO2 240956Z 10005KT 16/14 A2984 RMK A01 T01600139  RH  087%=      5-min Rain = 0
KCO2 240957Z 10005KT 16/14 A2984 RMK A01 T01600138  RH  087%=      5-min Rain = 0
KCO2 240958Z 10005KT 16/14 A2984 RMK A01 T01600139  RH  087%=      5-min Rain = 0
KCO2 240959Z 10005KT 16/14 A2984 RMK A01 T01600139  RH  087%=      5-min Rain = 0
KCO2 241000Z 11004KT 16/14 A2984 RMK A01 T01600138  RH  087%=      5-min Rain = 0
KCO2 241001Z 10004KT 16/14 A2984 RMK A01 T01600139  RH  087%=      5-min Rain = 0
KCO2 241002Z 10004KT 16/14 A2984 RMK A01 T01600139  RH  087%=      5-min Rain = 0
KCO2 241003Z 11004KT 16/14 A2984 RMK A01 T01600138  RH  087%=      5-min Rain = 0
KCO2 241004Z 11004KT 16/14 A2984 RMK A01 T01610138  RH  087%=      5-min Rain = 0
KCO2 241005Z 11004KT 16/14 A2984 RMK A01 T01610138  RH  086%=      5-min Rain = 0
KCO2 241006Z 12004KT 16/14 A2984 RMK A01 T01610139  RH  086%=      5-min Rain = 0
KCO2 241007Z 11004KT 16/14 A2984 RMK A01 T01610138  RH  086%=      5-min Rain = 0
KCO2 241008Z 11004KT 16/14 A2984 RMK A01 T01620138  RH  086%=      5-min Rain = 0
KCO2 241009Z 11003KT 16/14 A2984 RMK A01 T01620139  RH  086%=      5-min Rain = 0
KCO2 241010Z 12003KT 16/14 A2984 RMK A01 T01620138  RH  086%=      5-min Rain = 0
KCO2 241011Z 12003KT 16/14 A2984 RMK A01 T01620138  RH  085%=      5-min Rain = 0
KCO2 241012Z 12003KT 16/14 A2984 RMK A01 T01620138  RH  085%=      5-min Rain = 0
KCO2 241013Z 12003KT 16/14 A2984 RMK A01 T01620137  RH  085%=      5-min Rain = 0
KCO2 241014Z 11003KT 16/14 A2984 RMK A01 T01610136  RH  085%=      5-min Rain = 0
KCO2 241015Z 13002KT 16/13 A2984 RMK A01 T01590134  RH  085%=      5-min Rain = 0
KCO2 241016Z 14002KT 16/13 A2984 RMK A01 T01570134  RH  086%=      5-min Rain = 0
KCO2 241017Z 14002KT 16/13 A2984 RMK A01 T01560132  RH  086%=      5-min Rain = 0
KCO2 241018Z 13001KT 15/13 A2984 RMK A01 T01530130  RH  086%=      5-min Rain = 0
KCO2 241019Z 13001KT 15/13 A2984 RMK A01 T01510130  RH  087%=      5-min Rain = 0
KCO2 241020Z 14000KT 15/13 A2984 RMK A01 T01510132  RH  089%=      5-min Rain = 0
KCO2 241021Z 22001KT 15/13 A2984 RMK A01 T01500133  RH  089%=      5-min Rain = 0
KCO2 241022Z 23002KT 15/13 A2984 RMK A01 T01490132  RH  089%=      5-min Rain = 0
KCO2 241023Z 25002KT 15/13 A2984 RMK A01 T01480131  RH  090%=      5-min Rain = 0
KCO2 241024Z 26003KT 15/13 A2984 RMK A01 T01470131  RH  090%=      5-min Rain = 0
KCO2 241025Z 26003KT 15/13 A2984 RMK A01 T01460132  RH  091%=      5-min Rain = 0
KCO2 241026Z 26003KT 15/13 A2984 RMK A01 T01460132  RH  091%=      5-min Rain = 0
KCO2 241027Z 27003KT 15/13 A2985 RMK A01 T01460132  RH  091%=      5-min Rain = 0
KCO2 241028Z 28003KT 15/13 A2985 RMK A01 T01460132  RH  091%=      5-min Rain = 0
KCO2 241029Z 28003KT 15/13 A2985 RMK A01 T01450132  RH  091%=      5-min Rain = 0
KCO2 241030Z 29004KT 15/13 A2985 RMK A01 T01450131  RH  091%=      5-min Rain = 0
KCO2 241031Z 29003KT 14/13 A2985 RMK A01 T01440129  RH  091%=      5-min Rain = 0
KCO2 241032Z 29003KT 14/13 A2985 RMK A01 T01420128  RH  091%=      5-min Rain = 0
KCO2 241033Z 30003KT 14/13 A2985 RMK A01 T01410128  RH  092%=      5-min Rain = 0
KCO2 241034Z 30003KT 14/13 A2985 RMK A01 T01410128  RH  092%=      5-min Rain = 0
KCO2 241035Z 30003KT 14/13 A2985 RMK A01 T01410128  RH  092%=      5-min Rain = 0
KCO2 241036Z 30002KT 14/13 A2985 RMK A01 T01410129  RH  093%=      5-min Rain = 0
KCO2 241037Z 31002KT 14/13 A2985 RMK A01 T01410129  RH  093%=      5-min Rain = 0
KCO2 241038Z 31002KT 14/13 A2985 RMK A01 T01410130  RH  093%=      5-min Rain = 0
KCO2 241039Z 31002KT 14/13 A2985 RMK A01 T01420131  RH  093%=      5-min Rain = 0
KCO2 241040Z 31002KT 14/13 A2985 RMK A01 T01420132  RH  093%=      5-min Rain = 0
KCO2 241041Z 30002KT 14/13 A2985 RMK A01 T01430132  RH  093%=      5-min Rain = 0
KCO2 241042Z 29002KT 14/13 A2985 RMK A01 T01430132  RH  093%=      5-min Rain = 0
KCO2 241043Z 29002KT 14/13 A2985 RMK A01 T01430132  RH  093%=      5-min Rain = 0
KCO2 241044Z 29001KT 14/13 A2985 RMK A01 T01430131  RH  093%=      5-min Rain = 0
KCO2 241045Z 29001KT 14/13 A2985 RMK A01 T01430132  RH  093%=      5-min Rain = 0
KCO2 241046Z 29000KT 15/13 A2985 RMK A01 T01450134  RH  093%=      5-min Rain = 0
KCO2 241047Z 00000KT 15/13 A2985 RMK A01 T01460134  RH  092%=      5-min Rain = 0
KCO2 241048Z 00000KT 15/13 A2985 RMK A01 T01460132  RH  091%=      5-min Rain = 0
KCO2 241049Z 00000KT 15/13 A2985 RMK A01 T01450131  RH  091%=      5-min Rain = 0
KCO2 241050Z 00000KT 15/13 A2985 RMK A01 T01460131  RH  091%=      5-min Rain = 0
KCO2 241051Z 00000KT 15/13 A2985 RMK A01 T01450130  RH  091%=      5-min Rain = 0
KCO2 241052Z 00000KT 15/13 A2985 RMK A01 T01450130  RH  091%=      5-min Rain = 0
KCO2 241053Z 00000KT 15/13 A2985 RMK A01 T01450130  RH  091%=      5-min Rain = 0
KCO2 241054Z 00000KT 15/13 A2985 RMK A01 T01450130  RH  091%=      5-min Rain = 0
KCO2 241055Z 00000KT 15/13 A2985 RMK A01 T01460132  RH  091%=      5-min Rain = 0
KCO2 241056Z 00000KT 15/13 A2985 RMK A01 T01470132  RH  091%=      5-min Rain = 0
KCO2 241057Z 29000KT 15/13 A2986 RMK A01 T01470131  RH  090%=      5-min Rain = 0
KCO2 241058Z 29001KT 15/13 A2986 RMK A01 T01480132  RH  090%=      5-min Rain = 0
KCO2 241059Z 29001KT 15/13 A2986 RMK A01 T01490134  RH  091%=      5-min Rain = 0
KCO2 241100Z 29002KT 15/14 A2986 RMK A01 T01500136  RH  091%=      5-min Rain = 0
KCO2 241101Z 29002KT 15/14 A2986 RMK A01 T01520136  RH  090%=      5-min Rain = 0
KCO2 241102Z 28002KT 15/14 A2986 RMK A01 T01520136  RH  090%=      5-min Rain = 0
KCO2 241103Z 28002KT 15/14 A2986 RMK A01 T01530136  RH  090%=      5-min Rain = 0
KCO2 241104Z 28001KT 15/14 A2986 RMK A01 T01540137  RH  090%=      5-min Rain = 0
KCO2 241105Z 28001KT 16/14 A2986 RMK A01 T01550138  RH  089%=      5-min Rain = 0
KCO2 241106Z 28001KT 16/14 A2986 RMK A01 T01560138  RH  089%=      5-min Rain = 0
KCO2 241107Z 28001KT 16/13 A2986 RMK A01 T01560134  RH  087%=      5-min Rain = 0
KCO2 241108Z 28001KT 16/13 A2986 RMK A01 T01550132  RH  086%=      5-min Rain = 0
KCO2 241109Z 28000KT 16/13 A2986 RMK A01 T01550134  RH  087%=      5-min Rain = 0
KCO2 241110Z 00000KT 16/13 A2986 RMK A01 T01560133  RH  087%=      5-min Rain = 0
KCO2 241111Z 18000KT 16/14 A2986 RMK A01 T01560135  RH  088%=      5-min Rain = 0
KCO2 241112Z 18002KT 16/14 A2986 RMK A01 T01570138  RH  088%=      5-min Rain = 0
KCO2 241113Z 19002KT 16/14 A2986 RMK A01 T01580138  RH  088%=      5-min Rain = 0
KCO2 241114Z 18002KT 16/14 A2986 RMK A01 T01590137  RH  087%=      5-min Rain = 0
KCO2 241115Z 18003KT 16/14 A2986 RMK A01 T01600141  RH  088%=      5-min Rain = 0
KCO2 241116Z 18003KT 16/14 A2986 RMK A01 T01610138  RH  087%=      5-min Rain = 0
KCO2 241117Z 18003KT 16/14 A2986 RMK A01 T01600137  RH  086%=      5-min Rain = 0
KCO2 241118Z 17004KT 16/14 A2986 RMK A01 T01590137  RH  087%=      5-min Rain = 0
KCO2 241119Z 17004KT 16/14 A2986 RMK A01 T01570136  RH  087%=      5-min Rain = 0
KCO2 241120Z 17004KT 16/14 A2986 RMK A01 T01560135  RH  087%=      5-min Rain = 0
KCO2 241121Z 17004KT 15/13 A2986 RMK A01 T01540134  RH  087%=      5-min Rain = 0
KCO2 241122Z 17004KT 15/13 A2986 RMK A01 T01530133  RH  088%=      5-min Rain = 0
KCO2 241123Z 18004KT 15/13 A2986 RMK A01 T01520134  RH  089%=      5-min Rain = 0
KCO2 241124Z 18004KT 15/13 A2986 RMK A01 T01520134  RH  089%=      5-min Rain = 0
KCO2 241125Z 18004KT 15/14 A2986 RMK A01 T01520136  RH  090%=      5-min Rain = 0
KCO2 241126Z 18004KT 15/14 A2986 RMK A01 T01530136  RH  090%=      5-min Rain = 0
KCO2 241127Z 18004KT 15/14 A2986 RMK A01 T01530136  RH  090%=      5-min Rain = 0
KCO2 241128Z 18005KT 15/14 A2986 RMK A01 T01530136  RH  089%=      5-min Rain = 0
KCO2 241129Z 18005KT 15/14 A2986 RMK A01 T01530136  RH  089%=      5-min Rain = 0
KCO2 241130Z 18005KT 15/14 A2986 RMK A01 T01540136  RH  089%=      5-min Rain = 0
KCO2 241131Z 17005KT 15/14 A2986 RMK A01 T01530135  RH  089%=      5-min Rain = 0
KCO2 241132Z 17005KT 15/13 A2986 RMK A01 T01530134  RH  089%=      5-min Rain = 0
KCO2 241133Z 17005KT 15/13 A2986 RMK A01 T01510132  RH  088%=      5-min Rain = 0
KCO2 241134Z 17005KT 15/13 A2986 RMK A01 T01490129  RH  088%=      5-min Rain = 0
KCO2 241135Z 16004KT 15/13 A2986 RMK A01 T01470128  RH  089%=      5-min Rain = 0
KCO2 241136Z 15004KT 15/13 A2986 RMK A01 T01450128  RH  090%=      5-min Rain = 0
KCO2 241137Z 15004KT 14/13 A2986 RMK A01 T01430128  RH  090%=      5-min Rain = 0
KCO2 241138Z 16005KT 14/13 A2986 RMK A01 T01430130  RH  092%=      5-min Rain = 0
KCO2 241139Z 16005KT 14/13 A2986 RMK A01 T01430130  RH  092%=      5-min Rain = 0
KCO2 241140Z 16006KT 14/13 A2986 RMK A01 T01420130  RH  092%=      5-min Rain = 0
KCO2 241141Z 16005KT 14/13 A2987 RMK A01 T01420131  RH  093%=      5-min Rain = 0
KCO2 241142Z 16006KT 14/13 A2987 RMK A01 T01420131  RH  093%=      5-min Rain = 0
KCO2 241143Z 16005KT 14/13 A2987 RMK A01 T01420131  RH  093%=      5-min Rain = 0
KCO2 241144Z 15005KT 14/13 A2987 RMK A01 T01420131  RH  093%=      5-min Rain = 0
KCO2 241145Z 15005KT 14/13 A2987 RMK A01 T01420132  RH  093%=      5-min Rain = 0
KCO2 241146Z 15005KT 14/13 A2987 RMK A01 T01420131  RH  093%=      5-min Rain = 0
KCO2 241147Z 15005KT 14/13 A2987 RMK A01 T01420132  RH  093%=      5-min Rain = 0
KCO2 241148Z 15005KT 14/13 A2987 RMK A01 T01420132  RH  093%=      5-min Rain = 0
KCO2 241149Z 14004KT 14/13 A2987 RMK A01 T01410131  RH  093%=      5-min Rain = 0
KCO2 241150Z 15004KT 14/13 A2987 RMK A01 T01410131  RH  093%=      5-min Rain = 0
KCO2 241151Z 15004KT 14/13 A2987 RMK A01 T01410131  RH  094%=      5-min Rain = 0
KCO2 241152Z 15004KT 14/13 A2987 RMK A01 T01420132  RH  094%=      5-min Rain = 0
KCO2 241153Z 16004KT 14/13 A2987 RMK A01 T01410131  RH  094%=      5-min Rain = 0
KCO2 241154Z 16004KT 14/13 A2987 RMK A01 T01410131  RH  093%=      5-min Rain = 0
KCO2 241155Z 15005KT 14/13 A2987 RMK A01 T01420131  RH  094%=      5-min Rain = 0
KCO2 241156Z 15005KT 14/13 A2987 RMK A01 T01410131  RH  094%=      5-min Rain = 0
KCO2 241157Z 15006KT 14/13 A2987 RMK A01 T01430133  RH  094%=      5-min Rain = 0
KCO2 241158Z 15006KT 14/13 A2987 RMK A01 T01430133  RH  094%=      5-min Rain = 0
KCO2 241159Z 14005KT 14/13 A2987 RMK A01 T01440134  RH  094%=      5-min Rain = 0
KCO2 241200Z 14005KT 15/14 A2987 RMK A01 T01450135  RH  094%=      5-min Rain = 0
KCO2 241201Z 14006KT 15/14 A2987 RMK A01 T01450136  RH  094%=      5-min Rain = 0
KCO2 241202Z 14006KT 15/14 A2987 RMK A01 T01460137  RH  094%=      5-min Rain = 0
KCO2 241203Z 14006KT 15/14 A2987 RMK A01 T01470138  RH  094%=      5-min Rain = 0
KCO2 241204Z 14006KT 15/14 A2987 RMK A01 T01490139  RH  094%=      5-min Rain = 0
KCO2 241205Z 14006KT 15/14 A2987 RMK A01 T01500140  RH  094%=      5-min Rain = 0
KCO2 241206Z 14006KT 15/14 A2987 RMK A01 T01510140  RH  094%=      5-min Rain = 0
KCO2 241207Z 14006KT 15/14 A2987 RMK A01 T01510141  RH  093%=      5-min Rain = 0
KCO2 241208Z 14006KT 15/14 A2987 RMK A01 T01520141  RH  093%=      5-min Rain = 0
KCO2 241209Z 14006KT 15/14 A2987 RMK A01 T01530141  RH  093%=      5-min Rain = 0
KCO2 241210Z 14005KT 15/14 A2987 RMK A01 T01530141  RH  093%=      5-min Rain = 0
KCO2 241211Z 13005KT 15/14 A2987 RMK A01 T01540141  RH  092%=      5-min Rain = 0
KCO2 241212Z 13005KT 15/14 A2987 RMK A01 T01540141  RH  092%=      5-min Rain = 0
KCO2 241213Z 12005KT 15/14 A2987 RMK A01 T01540141  RH  092%=      5-min Rain = 0
KCO2 241214Z 13005KT 15/14 A2987 RMK A01 T01540141  RH  092%=      5-min Rain = 0
KCO2 241215Z 12005KT 16/14 A2987 RMK A01 T01550142  RH  092%=      5-min Rain = 0
KCO2 241216Z 13005KT 16/14 A2988 RMK A01 T01560143  RH  092%=      5-min Rain = 0
KCO2 241217Z 12006KT 16/14 A2988 RMK A01 T01560143  RH  092%=      5-min Rain = 0
KCO2 241218Z 12006KT 16/14 A2988 RMK A01 T01570144  RH  092%=      5-min Rain = 0
KCO2 241219Z 12005KT 16/14 A2988 RMK A01 T01580144  RH  091%=      5-min Rain = 0
KCO2 241220Z 13004KT 16/14 A2988 RMK A01 T01590144  RH  091%=      5-min Rain = 0
KCO2 241221Z 13004KT 16/14 A2988 RMK A01 T01590144  RH  091%=      5-min Rain = 0
KCO2 241222Z 13004KT 16/15 A2988 RMK A01 T01600145  RH  091%=      5-min Rain = 0
KCO2 241223Z 12005KT 16/15 A2988 RMK A01 T01610145  RH  091%=      5-min Rain = 0
KCO2 241224Z 12004KT 16/15 A2988 RMK A01 T01610145  RH  090%=      5-min Rain = 0
KCO2 241225Z 13004KT 16/15 A2988 RMK A01 T01620146  RH  090%=      5-min Rain = 0
KCO2 241226Z 13004KT 16/15 A2988 RMK A01 T01620146  RH  090%=      5-min Rain = 0
KCO2 241227Z 13004KT 16/15 A2988 RMK A01 T01620146  RH  090%=      5-min Rain = 0
KCO2 241228Z 13005KT 16/15 A2988 RMK A01 T01630146  RH  090%=      5-min Rain = 0
KCO2 241229Z 13005KT 16/15 A2988 RMK A01 T01640147  RH  090%=      5-min Rain = 0
KCO2 241230Z 14004KT 16/15 A2988 RMK A01 T01640147  RH  090%=      5-min Rain = 0
KCO2 241231Z 14005KT 17/15 A2988 RMK A01 T01650148  RH  090%=      5-min Rain = 0
KCO2 241232Z 14006KT 17/15 A2988 RMK A01 T01660149  RH  090%=      5-min Rain = 0
KCO2 241233Z 14005KT 17/15 A2988 RMK A01 T01670150  RH  090%=      5-min Rain = 0
KCO2 241234Z 14006KT 17/15 A2988 RMK A01 T01680151  RH  090%=      5-min Rain = 0
KCO2 241235Z 14006KT 17/15 A2988 RMK A01 T01700151  RH  089%=      5-min Rain = 0
KCO2 241236Z 14006KT 17/15 A2988 RMK A01 T01710152  RH  089%=      5-min Rain = 0
KCO2 241237Z 14006KT 17/15 A2988 RMK A01 T01720152  RH  088%=      5-min Rain = 0
KCO2 241238Z 14005KT 17/15 A2987 RMK A01 T01730153  RH  088%=      5-min Rain = 0
KCO2 241239Z 15006KT 17/15 A2987 RMK A01 T01730153  RH  088%=      5-min Rain = 0
KCO2 241240Z 14006KT 17/15 A2987 RMK A01 T01740153  RH  087%=      5-min Rain = 0
KCO2 241241Z 15007KT 18/15 A2987 RMK A01 T01750153  RH  087%=      5-min Rain = 0
KCO2 241242Z 15008KT 18/15 A2987 RMK A01 T01760152  RH  086%=      5-min Rain = 0
KCO2 241243Z 14006KT 18/15 A2987 RMK A01 T01770153  RH  086%=      5-min Rain = 0
KCO2 241244Z 14007KT 18/15 A2987 RMK A01 T01780153  RH  086%=      5-min Rain = 0
KCO2 241245Z 14007KT 18/15 A2987 RMK A01 T01780153  RH  085%=      5-min Rain = 0
KCO2 241246Z 14007KT 18/15 A2987 RMK A01 T01790153  RH  085%=      5-min Rain = 0
KCO2 241247Z 14006KT 18/15 A2987 RMK A01 T01790153  RH  085%=      5-min Rain = 0
KCO2 241248Z 15006KT 18/15 A2987 RMK A01 T01800154  RH  085%=      5-min Rain = 0
KCO2 241249Z 15006KT 18/15 A2987 RMK A01 T01810154  RH  084%=      5-min Rain = 0
KCO2 241250Z 15005KT 18/15 A2987 RMK A01 T01820153  RH  084%=      5-min Rain = 0
KCO2 241251Z 15005KT 18/15 A2987 RMK A01 T01830154  RH  083%=      5-min Rain = 0
KCO2 241252Z 16007KT 18/15 A2987 RMK A01 T01840154  RH  083%=      5-min Rain = 0
KCO2 241253Z 15006KT 18/15 A2987 RMK A01 T01840153  RH  082%=      5-min Rain = 0
KCO2 241254Z 15006KT 19/15 A2987 RMK A01 T01850154  RH  082%=      5-min Rain = 0
KCO2 241255Z 15006KT 19/15 A2987 RMK A01 T01860153  RH  081%=      5-min Rain = 0
KCO2 241256Z 15006KT 19/15 A2987 RMK A01 T01870153  RH  081%=      5-min Rain = 0
KCO2 241257Z 15007KT 19/15 A2987 RMK A01 T01870154  RH  081%=      5-min Rain = 0
KCO2 241258Z 15007KT 19/15 A2987 RMK A01 T01880153  RH  080%=      5-min Rain = 0
KCO2 241259Z 16006KT 19/15 A2987 RMK A01 T01890153  RH  079%=      5-min Rain = 0
KCO2 241300Z 16006KT 19/15 A2987 RMK A01 T01900153  RH  079%=      5-min Rain = 0
KCO2 241301Z 16006KT 19/15 A2987 RMK A01 T01910154  RH  079%=      5-min Rain = 0
KCO2 241302Z 16005KT 19/15 A2987 RMK A01 T01920154  RH  079%=      5-min Rain = 0
KCO2 241303Z 16005KT 19/15 A2987 RMK A01 T01930154  RH  078%=      5-min Rain = 0
KCO2 241304Z 15007KT 19/15 A2987 RMK A01 T01940154  RH  077%=      5-min Rain = 0
KCO2 241305Z 16006KT 19/15 A2987 RMK A01 T01940153  RH  077%=      5-min Rain = 0
KCO2 241306Z 15006KT 20/15 A2987 RMK A01 T01950152  RH  076%=      5-min Rain = 0
KCO2 241307Z 15006KT 20/15 A2987 RMK A01 T01960152  RH  076%=      5-min Rain = 0
KCO2 241308Z 16006KT 20/15 A2987 RMK A01 T01960152  RH  076%=      5-min Rain = 0
KCO2 241309Z 16005KT 20/15 A2987 RMK A01 T01970153  RH  076%=      5-min Rain = 0
KCO2 241310Z 14005KT 20/15 A2987 RMK A01 T01970153  RH  076%=      5-min Rain = 0
KCO2 241311Z 15007KT 20/15 A2987 RMK A01 T01980154  RH  076%=      5-min Rain = 0
KCO2 241312Z 16006KT 20/15 A2987 RMK A01 T01980153  RH  075%=      5-min Rain = 0
KCO2 241313Z 16005KT 20/15 A2987 RMK A01 T01980154  RH  075%=      5-min Rain = 0
KCO2 241314Z 16006KT 20/15 A2987 RMK A01 T01990154  RH  075%=      5-min Rain = 0
KCO2 241315Z 15006KT 20/15 A2987 RMK A01 T01990153  RH  075%=      5-min Rain = 0
KCO2 241316Z 15005KT 20/15 A2987 RMK A01 T02000154  RH  075%=      5-min Rain = 0
KCO2 241317Z 16006KT 20/15 A2987 RMK A01 T02010154  RH  074%=      5-min Rain = 0
KCO2 241318Z 15005KT 20/15 A2987 RMK A01 T02010154  RH  074%=      5-min Rain = 0
KCO2 241319Z 16006KT 20/16 A2987 RMK A01 T02020155  RH  074%=      5-min Rain = 0
KCO2 241320Z 15007KT 20/15 A2987 RMK A01 T02030154  RH  073%=      5-min Rain = 0
KCO2 241321Z 16006KT 20/15 A2987 RMK A01 T02030152  RH  072%=      5-min Rain = 0
KCO2 241322Z 15005KT 20/15 A2987 RMK A01 T02030154  RH  073%=      5-min Rain = 0
KCO2 241323Z 16006KT 21/16 A2987 RMK A01 T02050157  RH  074%=      5-min Rain = 0
KCO2 241324Z 16005KT 21/16 A2987 RMK A01 T02060155  RH  072%=      5-min Rain = 0
KCO2 241325Z 17007KT 21/16 A2986 RMK A01 T02070156  RH  072%=      5-min Rain = 0
KCO2 241326Z 17006KT 21/15 A2986 RMK A01 T02080151  RH  070%=      5-min Rain = 0
KCO2 241327Z 16005KT 21/15 A2987 RMK A01 T02090153  RH  070%=      5-min Rain = 0
KCO2 241328Z 18005KT 21/16 A2987 RMK A01 T02110155  RH  070%=      5-min Rain = 0
KCO2 241329Z 18008KT 21/15 A2987 RMK A01 T02120152  RH  069%=      5-min Rain = 0
KCO2 241330Z 18007KT 21/15 A2987 RMK A01 T02130150  RH  067%=      5-min Rain = 0
KCO2 241331Z 17007KT 21/15 A2987 RMK A01 T02140151  RH  068%=      5-min Rain = 0
KCO2 241332Z 17008KT 21/15 A2987 RMK A01 T02140150  RH  067%=      5-min Rain = 0
KCO2 241333Z 17010KT 22/15 A2987 RMK A01 T02150149  RH  066%=      5-min Rain = 0
KCO2 241334Z 17009KT 22/15 A2986 RMK A01 T02150148  RH  066%=      5-min Rain = 0
KCO2 241335Z 17008KT 22/15 A2986 RMK A01 T02150148  RH  066%=      5-min Rain = 0
KCO2 241336Z 17009KT 22/15 A2986 RMK A01 T02160150  RH  066%=      5-min Rain = 0
KCO2 241337Z 16006KT 22/15 A2986 RMK A01 T02160149  RH  066%=      5-min Rain = 0
KCO2 241338Z 16008KT 22/15 A2987 RMK A01 T02160151  RH  066%=      5-min Rain = 0
KCO2 241339Z 16008KT 22/15 A2987 RMK A01 T02170150  RH  066%=      5-min Rain = 0
KCO2 241340Z 16007KT 22/15 A2987 RMK A01 T02180152  RH  066%=      5-min Rain = 0
KCO2 241341Z 16008KT 22/15 A2987 RMK A01 T02190152  RH  066%=      5-min Rain = 0
KCO2 241342Z 16009KT 22/15 A2987 RMK A01 T02190150  RH  065%=      5-min Rain = 0
KCO2 241343Z 17011KT 22/15 A2987 RMK A01 T02190150  RH  065%=      5-min Rain = 0
KCO2 241344Z 18009KT 22/15 A2987 RMK A01 T02190150  RH  065%=      5-min Rain = 0
KCO2 241345Z 16008KT 22/15 A2986 RMK A01 T02200152  RH  065%=      5-min Rain = 0
KCO2 241346Z 16009KT 22/15 A2986 RMK A01 T02210152  RH  065%=      5-min Rain = 0
KCO2 241347Z 16008KT 22/15 A2986 RMK A01 T02210152  RH  065%=      5-min Rain = 0
KCO2 241348Z 16007KT 22/16 A2986 RMK A01 T02210155  RH  066%=      5-min Rain = 0
KCO2 241349Z 16008KT 22/15 A2987 RMK A01 T02230154  RH  065%=      5-min Rain = 0
KCO2 241350Z 15007KT 22/15 A2987 RMK A01 T02240153  RH  064%=      5-min Rain = 0
KCO2 241351Z 16006KT 22/15 A2987 RMK A01 T02240154  RH  064%=      5-min Rain = 0
KCO2 241352Z 16007KT 23/16 A2987 RMK A01 T02250157  RH  065%=      5-min Rain = 0
KCO2 241353Z 16007KT 23/16 A2987 RMK A01 T02270155  RH  064%=      5-min Rain = 0
KCO2 241354Z 16009KT 23/16 A2986 RMK A01 T02280156  RH  064%=      5-min Rain = 0
KCO2 241355Z 16010KT 23/16 A2986 RMK A01 T02280155  RH  063%=      5-min Rain = 0
KCO2 241356Z 18010KT 23/15 A2986 RMK A01 T02280154  RH  063%=      5-min Rain = 0
KCO2 241357Z 16010KT 23/15 A2986 RMK A01 T02280154  RH  063%=      5-min Rain = 0
KCO2 241358Z 16011KT 23/15 A2986 RMK A01 T02280154  RH  063%=      5-min Rain = 0
KCO2 241359Z 16010KT 23/16 A2986 RMK A01 T02280155  RH  063%=      5-min Rain = 0
KCO2 241400Z 17010KT 23/15 A2986 RMK A01 T02280154  RH  063%=      5-min Rain = 0
KCO2 241401Z 17009KT 23/16 A2986 RMK A01 T02290156  RH  063%=      5-min Rain = 0
KCO2 241402Z 17010KT 23/15 A2986 RMK A01 T02300154  RH  062%=      5-min Rain = 0
KCO2 241403Z 16011KT 23/16 A2986 RMK A01 T02310155  RH  062%=      5-min Rain = 0
KCO2 241404Z 16011KT 23/16 A2986 RMK A01 T02300155  RH  062%=      5-min Rain = 0
KCO2 241405Z 17010KT 23/16 A2986 RMK A01 T02300156  RH  063%=      5-min Rain = 0
KCO2 241406Z 18010KT 23/16 A2986 RMK A01 T02300155  RH  063%=      5-min Rain = 0
KCO2 241407Z 18010KT 23/16 A2986 RMK A01 T02310157  RH  063%=      5-min Rain = 0
KCO2 241408Z 18009KT 23/16 A2986 RMK A01 T02330158  RH  063%=      5-min Rain = 0
KCO2 241409Z 17012KT 23/16 A2986 RMK A01 T02340157  RH  062%=      5-min Rain = 0
KCO2 241410Z 17014KT 23/16 A2986 RMK A01 T02340157  RH  062%=      5-min Rain = 0
KCO2 241411Z 17012KT 23/16 A2986 RMK A01 T02330158  RH  063%=      5-min Rain = 0
KCO2 241412Z 17013KT 23/16 A2986 RMK A01 T02330158  RH  063%=      5-min Rain = 0
KCO2 241413Z 18014KT 23/16 A2986 RMK A01 T02330158  RH  063%=      5-min Rain = 0
KCO2 241414Z 17013KT 23/16 A2986 RMK A01 T02330159  RH  063%=      5-min Rain = 0
KCO2 241415Z 17010KT 23/16 A2986 RMK A01 T02340160  RH  063%=      5-min Rain = 0
KCO2 241416Z 16012KT 24/16 A2986 RMK A01 T02350162  RH  063%=      5-min Rain = 0
KCO2 241417Z 17015KT 24/16 A2986 RMK A01 T02370161  RH  063%=      5-min Rain = 0
KCO2 241418Z 17013KT 24/16 A2986 RMK A01 T02370161  RH  062%=      5-min Rain = 0
KCO2 241419Z 17014KT 24/16 A2986 RMK A01 T02370160  RH  062%=      5-min Rain = 0
KCO2 241420Z 17012KT 24/16 A2986 RMK A01 T02370161  RH  062%=      5-min Rain = 0
KCO2 241421Z 17013KT 24/16 A2986 RMK A01 T02380161  RH  062%=      5-min Rain = 0
KCO2 241422Z 16010KT 24/16 A2986 RMK A01 T02380162  RH  062%=      5-min Rain = 0
KCO2 241423Z 17012KT 24/16 A2986 RMK A01 T02400164  RH  062%=      5-min Rain = 0
KCO2 241424Z 16011KT 24/17 A2986 RMK A01 T02420165  RH  062%=      5-min Rain = 0
KCO2 241425Z 15013G18KT 24/17 A2986 RMK A01 T02440166  RH  062%=      5-min Rain = 0
KCO2 241426Z 15014KT 24/17 A2986 RMK A01 T02440165  RH  061%=      5-min Rain = 0
KCO2 241427Z 15012KT 24/17 A2986 RMK A01 T02430165  RH  062%=      5-min Rain = 0
KCO2 241428Z 15012KT 24/17 A2986 RMK A01 T02420165  RH  062%=      5-min Rain = 0
KCO2 241429Z 15012KT 24/16 A2986 RMK A01 T02420164  RH  062%=      5-min Rain = 0
KCO2 241430Z 16011G17KT 24/17 A2986 RMK A01 T02430166  RH  062%=      5-min Rain = 0
KCO2 241431Z 16013KT 24/17 A2986 RMK A01 T02440166  RH  061%=      5-min Rain = 0
KCO2 241432Z 17014KT 25/17 A2986 RMK A01 T02450165  RH  061%=      5-min Rain = 0
KCO2 241433Z 18015KT 25/17 A2986 RMK A01 T02450165  RH  061%=      5-min Rain = 0
KCO2 241434Z 18016KT 25/17 A2986 RMK A01 T02450165  RH  061%=      5-min Rain = 0
KCO2 241435Z 18017KT 25/17 A2986 RMK A01 T02450166  RH  061%=      5-min Rain = 0
KCO2 241436Z 17017KT 25/16 A2986 RMK A01 T02450164  RH  061%=      5-min Rain = 0
KCO2 241437Z 18016KT 24/17 A2986 RMK A01 T02440165  RH  061%=      5-min Rain = 0
KCO2 241438Z 18016KT 24/17 A2986 RMK A01 T02440166  RH  062%=      5-min Rain = 0
KCO2 241439Z 18014KT 25/17 A2986 RMK A01 T02450167  RH  061%=      5-min Rain = 0
KCO2 241440Z 18014KT 25/17 A2986 RMK A01 T02460167  RH  061%=      5-min Rain = 0
KCO2 241441Z 17015KT 25/17 A2986 RMK A01 T02470167  RH  061%=      5-min Rain = 0
KCO2 241442Z 17013KT 25/17 A2986 RMK A01 T02480168  RH  061%=      5-min Rain = 0
KCO2 241443Z 17014G20KT 25/17 A2986 RMK A01 T02500169  RH  061%=      5-min Rain = 0
KCO2 241444Z 17015KT 25/17 A2986 RMK A01 T02510168  RH  060%=      5-min Rain = 0
KCO2 241445Z 17016KT 25/17 A2986 RMK A01 T02510168  RH  060%=      5-min Rain = 0
KCO2 241446Z 17013KT 25/17 A2986 RMK A01 T02520168  RH  060%=      5-min Rain = 0
KCO2 241447Z 17014KT 25/17 A2986 RMK A01 T02520169  RH  060%=      5-min Rain = 0
KCO2 241448Z 16017KT 25/17 A2986 RMK A01 T02520169  RH  060%=      5-min Rain = 0
KCO2 241449Z 18018KT 25/17 A2986 RMK A01 T02510168  RH  060%=      5-min Rain = 0
KCO2 241450Z 19016G21KT 25/17 A2986 RMK A01 T02510168  RH  060%=      5-min Rain = 0
KCO2 241451Z 18013G20KT 25/17 A2986 RMK A01 T02510169  RH  061%=      5-min Rain = 0
KCO2 241452Z 17016KT 25/17 A2986 RMK A01 T02520169  RH  060%=      5-min Rain = 0
KCO2 241453Z 18013KT 25/17 A2986 RMK A01 T02520169  RH  060%=      5-min Rain = 0
KCO2 241454Z 17014KT 25/17 A2986 RMK A01 T02500170  RH  061%=      5-min Rain = 0
KCO2 241455Z 17012KT 25/17 A2986 RMK A01 T02500172  RH  062%=      5-min Rain = 0
KCO2 241456Z 16016G22KT 25/17 A2986 RMK A01 T02520174  RH  062%=      5-min Rain = 0
KCO2 241457Z 16016G21KT 25/17 A2986 RMK A01 T02540171  RH  060%=      5-min Rain = 0
KCO2 241458Z 17016KT 25/17 A2986 RMK A01 T02530173  RH  061%=      5-min Rain = 0
KCO2 241459Z 18015G20KT 25/17 A2986 RMK A01 T02520172  RH  061%=      5-min Rain = 0
KCO2 241500Z 17015G20KT 25/17 A2986 RMK A01 T02530172  RH  061%=      5-min Rain = 0
KCO2 241501Z 18014KT 25/17 A2986 RMK A01 T02530173  RH  061%=      5-min Rain = 0
KCO2 241502Z 17014G19KT 25/17 A2986 RMK A01 T02540174  RH  061%=      5-min Rain = 0
KCO2 241503Z 16019KT 26/17 A2986 RMK A01 T02550174  RH  061%=      5-min Rain = 0
KCO2 241504Z 17019KT 26/17 A2986 RMK A01 T02550173  RH  060%=      5-min Rain = 0
KCO2 241505Z 17018KT 25/17 A2986 RMK A01 T02540172  RH  061%=      5-min Rain = 0
KCO2 241506Z 16018KT 25/17 A2986 RMK A01 T02530173  RH  061%=      5-min Rain = 0
KCO2 241507Z 17018KT 25/17 A2986 RMK A01 T02540173  RH  061%=      5-min Rain = 0
KCO2 241508Z 17018KT 26/17 A2986 RMK A01 T02550172  RH  060%=      5-min Rain = 0
KCO2 241509Z 18020G25KT 26/17 A2985 RMK A01 T02550170  RH  059%=      5-min Rain = 0
KCO2 241510Z 18015G20KT 25/17 A2986 RMK A01 T02540172  RH  060%=      5-min Rain = 0
KCO2 241511Z 18018KT 26/17 A2985 RMK A01 T02560173  RH  060%=      5-min Rain = 0
KCO2 241512Z 18014G19KT 26/17 A2985 RMK A01 T02570172  RH  060%=      5-min Rain = 0
KCO2 241513Z 17016KT 26/17 A2986 RMK A01 T02560173  RH  060%=      5-min Rain = 0
KCO2 241514Z 17014KT 26/17 A2985 RMK A01 T02550173  RH  060%=      5-min Rain = 0
KCO2 241515Z 18013G18KT 26/18 A2986 RMK A01 T02560176  RH  061%=      5-min Rain = 0
KCO2 241516Z 18013KT 26/18 A2985 RMK A01 T02590175  RH  060%=      5-min Rain = 0
KCO2 241517Z 18019G24KT 26/17 A2985 RMK A01 T02600174  RH  059%=      5-min Rain = 0
KCO2 241518Z 16015KT 26/17 A2985 RMK A01 T02580174  RH  060%=      5-min Rain = 0
KCO2 241519Z 17016KT 26/18 A2985 RMK A01 T02580175  RH  060%=      5-min Rain = 0
KCO2 241520Z 17017KT 26/17 A2985 RMK A01 T02580174  RH  060%=      5-min Rain = 0
KCO2 241521Z 17017G22KT 26/17 A2985 RMK A01 T02580173  RH  059%=      5-min Rain = 0
KCO2 241522Z 17017KT 26/17 A2985 RMK A01 T02580173  RH  059%=      5-min Rain = 0
KCO2 241523Z 16016G21KT 26/18 A2985 RMK A01 T02580175  RH  060%=      5-min Rain = 0
KCO2 241524Z 17014KT 26/17 A2985 RMK A01 T02590174  RH  060%=      5-min Rain = 0
KCO2 241525Z 17015G20KT 26/18 A2985 RMK A01 T02610176  RH  059%=      5-min Rain = 0
KCO2 241526Z 17017KT 26/17 A2985 RMK A01 T02620174  RH  058%=      5-min Rain = 0
KCO2 241527Z 17016G21KT 26/17 A2985 RMK A01 T02600174  RH  059%=      5-min Rain = 0
KCO2 241528Z 18014G20KT 26/18 A2985 RMK A01 T02600176  RH  060%=      5-min Rain = 0
KCO2 241529Z 19016KT 26/17 A2985 RMK A01 T02610173  RH  058%=      5-min Rain = 0
KCO2 241530Z 18016KT 26/17 A2985 RMK A01 T02600174  RH  059%=      5-min Rain = 0
KCO2 241531Z 18016KT 26/17 A2985 RMK A01 T02600174  RH  059%=      5-min Rain = 0
KCO2 241532Z 17014KT 26/18 A2985 RMK A01 T02620176  RH  059%=      5-min Rain = 0
KCO2 241533Z 19015G21KT 26/18 A2985 RMK A01 T02630175  RH  058%=      5-min Rain = 0
KCO2 241534Z 19016KT 26/18 A2985 RMK A01 T02630175  RH  059%=      5-min Rain = 0
KCO2 241535Z 18014KT 26/18 A2985 RMK A01 T02630175  RH  059%=      5-min Rain = 0
KCO2 241536Z 17014G23KT 26/18 A2985 RMK A01 T02620175  RH  059%=      5-min Rain = 0
KCO2 241537Z 16016G21KT 26/17 A2985 RMK A01 T02620174  RH  058%=      5-min Rain = 0
KCO2 241538Z 17012KT 26/18 A2985 RMK A01 T02620176  RH  059%=      5-min Rain = 0
KCO2 241539Z 17013KT 26/18 A2985 RMK A01 T02640177  RH  059%=      5-min Rain = 0
KCO2 241540Z 17015KT 27/18 A2985 RMK A01 T02650176  RH  058%=      5-min Rain = 0
KCO2 241541Z 17017G22KT 27/18 A2985 RMK A01 T02650177  RH  058%=      5-min Rain = 0
KCO2 241542Z 17017G22KT 26/18 A2985 RMK A01 T02640175  RH  058%=      5-min Rain = 0
KCO2 241543Z 18016KT 26/18 A2985 RMK A01 T02630176  RH  059%=      5-min Rain = 0
KCO2 241544Z 19017KT 26/18 A2985 RMK A01 T02640175  RH  058%=      5-min Rain = 0
KCO2 241545Z 17018KT 26/18 A2985 RMK A01 T02640176  RH  059%=      5-min Rain = 0
KCO2 241546Z 17018KT 26/18 A2985 RMK A01 T02640175  RH  058%=      5-min Rain = 0
KCO2 241547Z 17015KT 26/18 A2985 RMK A01 T02630176  RH  059%=      5-min Rain = 0
KCO2 241548Z 17014G19KT 26/18 A2985 RMK A01 T02640178  RH  059%=      5-min Rain = 0
KCO2 241549Z 17015KT 27/18 A2985 RMK A01 T02650176  RH  058%=      5-min Rain = 0
KCO2 241550Z 19017G22KT 27/18 A2985 RMK A01 T02650177  RH  058%=      5-min Rain = 0
KCO2 241551Z 20014KT 27/18 A2985 RMK A01 T02650176  RH  058%=      5-min Rain = 0
KCO2 241552Z 18017G22KT 27/18 A2984 RMK A01 T02660178  RH  058%=      5-min Rain = 0
KCO2 241553Z 17022KT 27/18 A2985 RMK A01 T02680176  RH  057%=      5-min Rain = 0
KCO2 241554Z 16018KT 27/18 A2984 RMK A01 T02670177  RH  058%=      5-min Rain = 0
KCO2 241555Z 17016KT 27/18 A2984 RMK A01 T02670178  RH  058%=      5-min Rain = 0
KCO2 241556Z 18013KT 27/18 A2984 RMK A01 T02670178  RH  058%=      5-min Rain = 0
KCO2 241557Z 19016G22KT 27/18 A2984 RMK A01 T02680179  RH  058%=      5-min Rain = 0
KCO2 241558Z 20019KT 27/18 A2984 RMK A01 T02680178  RH  058%=      5-min Rain = 0
KCO2 241559Z 19018G23KT 27/18 A2984 RMK A01 T02680178  RH  058%=      5-min Rain = 0
KCO2 241600Z 18016G21KT 27/18 A2984 RMK A01 T02680179  RH  058%=      5-min Rain = 0
KCO2 241601Z 18019KT 27/18 A2984 RMK A01 T02690180  RH  058%=      5-min Rain = 0
KCO2 241602Z 18015KT 27/18 A2984 RMK A01 T02710181  RH  058%=      5-min Rain = 0
KCO2 241603Z 19017KT 27/18 A2984 RMK A01 T02730182  RH  058%=      5-min Rain = 0
KCO2 241604Z 19019G26KT 27/18 A2984 RMK A01 T02730181  RH  057%=      5-min Rain = 0
KCO2 241605Z 20022KT 27/18 A2984 RMK A01 T02700180  RH  058%=      5-min Rain = 0
KCO2 241606Z 20018KT 27/18 A2984 RMK A01 T02690181  RH  059%=      5-min Rain = 0
KCO2 241607Z 19018KT 27/18 A2984 RMK A01 T02700180  RH  058%=      5-min Rain = 0
KCO2 241608Z 19021G26KT 27/18 A2984 RMK A01 T02700181  RH  058%=      5-min Rain = 0
KCO2 241609Z 19020G26KT 27/18 A2984 RMK A01 T02710180  RH  058%=      5-min Rain = 0
KCO2 241610Z 19019G24KT 27/18 A2984 RMK A01 T02700180  RH  058%=      5-min Rain = 0
KCO2 241611Z 19017G22KT 27/18 A2984 RMK A01 T02690181  RH  058%=      5-min Rain = 0
KCO2 241612Z 19019G25KT 27/18 A2984 RMK A01 T02720183  RH  058%=      5-min Rain = 0
KCO2 241613Z 19018G23KT 27/18 A2984 RMK A01 T02730182  RH  057%=      5-min Rain = 0
KCO2 241614Z 18016G21KT 27/18 A2984 RMK A01 T02730183  RH  058%=      5-min Rain = 0
KCO2 241615Z 19015G20KT 28/19 A2984 RMK A01 T02750185  RH  058%=      5-min Rain = 0
KCO2 241616Z 19017KT 28/19 A2984 RMK A01 T02790185  RH  056%=      5-min Rain = 0
KCO2 241617Z 19016KT 28/18 A2984 RMK A01 T02790183  RH  056%=      5-min Rain = 0
KCO2 241618Z 18016G22KT 28/18 A2984 RMK A01 T02770183  RH  057%=      5-min Rain = 0
KCO2 241619Z 18019G24KT 28/18 A2984 RMK A01 T02770184  RH  057%=      5-min Rain = 0
KCO2 241620Z 17018KT 28/18 A2984 RMK A01 T02780184  RH  056%=      5-min Rain = 0
KCO2 241621Z 18019G24KT 28/19 A2984 RMK A01 T02800185  RH  056%=      5-min Rain = 0
KCO2 241622Z 19016G22KT 28/18 A2984 RMK A01 T02800183  RH  055%=      5-min Rain = 0
KCO2 241623Z 19020KT 28/18 A2984 RMK A01 T02790183  RH  056%=      5-min Rain = 0
KCO2 241624Z 18018G25KT 28/18 A2984 RMK A01 T02790182  RH  055%=      5-min Rain = 0
KCO2 241625Z 18019G24KT 28/18 A2984 RMK A01 T02800181  RH  055%=      5-min Rain = 0
KCO2 241626Z 17018KT 28/18 A2984 RMK A01 T02800183  RH  055%=      5-min Rain = 0
KCO2 241627Z 17018KT 28/18 A2984 RMK A01 T02810183  RH  055%=      5-min Rain = 0
KCO2 241628Z 18018KT 28/18 A2984 RMK A01 T02800182  RH  055%=      5-min Rain = 0
KCO2 241629Z 19016KT 28/18 A2984 RMK A01 T02810184  RH  056%=      5-min Rain = 0
KCO2 241630Z 20016KT 28/18 A2984 RMK A01 T02840184  RH  054%=      5-min Rain = 0
KCO2 241631Z 20016G23KT 28/18 A2984 RMK A01 T02840182  RH  054%=      5-min Rain = 0
KCO2 241632Z 20021KT 28/18 A2984 RMK A01 T02810182  RH  055%=      5-min Rain = 0
KCO2 241633Z 19018G23KT 28/18 A2984 RMK A01 T02800181  RH  055%=      5-min Rain = 0
KCO2 241634Z 18018KT 28/18 A2985 RMK A01 T02800183  RH  056%=      5-min Rain = 0
KCO2 241635Z 19016KT 28/18 A2985 RMK A01 T02800183  RH  055%=      5-min Rain = 0
KCO2 241636Z 20016G21KT 28/18 A2984 RMK A01 T02810183  RH  055%=      5-min Rain = 0
KCO2 241637Z 20016KT 28/18 A2985 RMK A01 T02820183  RH  055%=      5-min Rain = 0
KCO2 241638Z 19019G24KT 28/18 A2985 RMK A01 T02810183  RH  055%=      5-min Rain = 0
KCO2 241639Z 18018KT 28/18 A2985 RMK A01 T02790180  RH  055%=      5-min Rain = 0
KCO2 241640Z 18018KT 28/18 A2984 RMK A01 T02770182  RH  056%=      5-min Rain = 0
KCO2 241641Z 20015KT 28/18 A2984 RMK A01 T02760182  RH  056%=      5-min Rain = 0
KCO2 241642Z 19019G24KT 28/18 A2984 RMK A01 T02760181  RH  056%=      5-min Rain = 0
KCO2 241643Z 20017G22KT 27/18 A2984 RMK A01 T02740181  RH  057%=      5-min Rain = 0
KCO2 241644Z 20014KT 27/18 A2984 RMK A01 T02730181  RH  057%=      5-min Rain = 0
KCO2 241645Z 18016G22KT 28/18 A2984 RMK A01 T02750182  RH  057%=      5-min Rain = 0
KCO2 241646Z 19016KT 28/18 A2985 RMK A01 T02770182  RH  056%=      5-min Rain = 0
KCO2 241647Z 18014KT 28/18 A2985 RMK A01 T02780183  RH  056%=      5-min Rain = 0
KCO2 241648Z 17012KT 28/18 A2985 RMK A01 T02790182  RH  056%=      5-min Rain = 0
KCO2 241649Z 18017G22KT 28/18 A2984 RMK A01 T02810184  RH  056%=      5-min Rain = 0
KCO2 241650Z 19020G25KT 28/18 A2985 RMK A01 T02840184  RH  054%=      5-min Rain = 0
KCO2 241651Z 18018KT 28/18 A2985 RMK A01 T02840181  RH  054%=      5-min Rain = 0
KCO2 241652Z 18016KT 28/18 A2985 RMK A01 T02810182  RH  055%=      5-min Rain = 0
KCO2 241653Z 18015G20KT 28/18 A2985 RMK A01 T02810184  RH  056%=      5-min Rain = 0
KCO2 241654Z 17018KT 29/19 A2985 RMK A01 T02860185  RH  054%=      5-min Rain = 0
KCO2 241655Z 17020G25KT 29/18 A2985 RMK A01 T02870183  RH  053%=      5-min Rain = 0
KCO2 241656Z 17021KT 29/18 A2985 RMK A01 T02870184  RH  054%=      5-min Rain = 0
KCO2 241657Z 17021G26KT 29/18 A2985 RMK A01 T02870183  RH  053%=      5-min Rain = 0
KCO2 241658Z 19018G23KT 29/18 A2985 RMK A01 T02860183  RH  054%=      5-min Rain = 0
KCO2 241659Z 17015G21KT 29/19 A2985 RMK A01 T02860185  RH  054%=      5-min Rain = 0
KCO2 241700Z 17019KT 29/18 A2984 RMK A01 T02870183  RH  053%=      5-min Rain = 0
KCO2 241701Z 18018KT 29/18 A2985 RMK A01 T02860184  RH  054%=      5-min Rain = 0
KCO2 241702Z 19018KT 29/18 A2984 RMK A01 T02860184  RH  054%=      5-min Rain = 0
KCO2 241703Z 20015KT 29/18 A2984 RMK A01 T02860184  RH  054%=      5-min Rain = 0
KCO2 241704Z 19019KT 29/19 A2984 RMK A01 T02860185  RH  054%=      5-min Rain = 0
KCO2 241705Z 18015G21KT 29/18 A2984 RMK A01 T02890184  RH  053%=      5-min Rain = 0
KCO2 241706Z 18017G22KT 29/19 A2984 RMK A01 T02890187  RH  054%=      5-min Rain = 0
KCO2 241707Z 20015KT 29/19 A2984 RMK A01 T02910186  RH  053%=      5-min Rain = 0
KCO2 241708Z 19017KT 29/18 A2984 RMK A01 T02890182  RH  052%=      5-min Rain = 0
KCO2 241709Z 18017KT 29/18 A2984 RMK A01 T02860183  RH  054%=      5-min Rain = 0
KCO2 241710Z 17016G21KT 29/18 A2984 RMK A01 T02860184  RH  054%=      5-min Rain = 0
KCO2 241711Z 19013G18KT 29/19 A2984 RMK A01 T02870185  RH  054%=      5-min Rain = 0
KCO2 241712Z 20017KT 29/18 A2984 RMK A01 T02890184  RH  053%=      5-min Rain = 0
KCO2 241713Z 20018KT 29/18 A2984 RMK A01 T02880183  RH  053%=      5-min Rain = 0
KCO2 241714Z 18016G21KT 29/18 A2984 RMK A01 T02870184  RH  054%=      5-min Rain = 0
KCO2 241715Z 17017G23KT 29/19 A2984 RMK A01 T02880185  RH  053%=      5-min Rain = 0
KCO2 241716Z 16020G25KT 29/18 A2984 RMK A01 T02890184  RH  053%=      5-min Rain = 0
KCO2 241717Z 16017G23KT 29/19 A2984 RMK A01 T02880186  RH  054%=      5-min Rain = 0
KCO2 241718Z 16016KT 29/18 A2984 RMK A01 T02880184  RH  053%=      5-min Rain = 0
KCO2 241719Z 17016KT 29/19 A2984 RMK A01 T02860186  RH  054%=      5-min Rain = 0
KCO2 241720Z 17014G20KT 29/18 A2984 RMK A01 T02870184  RH  054%=      5-min Rain = 0
KCO2 241721Z 16020G25KT 29/18 A2984 RMK A01 T02860184  RH  054%=      5-min Rain = 0
KCO2 241722Z 17016G22KT 29/19 A2984 RMK A01 T02860185  RH  054%=      5-min Rain = 0
KCO2 241723Z 16018KT 29/19 A2984 RMK A01 T02890185  RH  054%=      5-min Rain = 0
KCO2 241724Z 18018G23KT 29/19 A2984 RMK A01 T02910185  RH  053%=      5-min Rain = 0
KCO2 241725Z 17015KT 29/19 A2984 RMK A01 T02900185  RH  053%=      5-min Rain = 0
KCO2 241726Z 17017KT 29/19 A2984 RMK A01 T02890185  RH  053%=      5-min Rain = 0
KCO2 241727Z 17019KT 29/18 A2984 RMK A01 T02890184  RH  053%=      5-min Rain = 0
KCO2 241728Z 18014G19KT 29/19 A2984 RMK A01 T02900186  RH  054%=      5-min Rain = 0
KCO2 241729Z 19019G24KT 29/19 A2984 RMK A01 T02930186  RH  052%=      5-min Rain = 0
KCO2 241730Z 17018G26KT 29/19 A2984 RMK A01 T02930186  RH  052%=      5-min Rain = 0
KCO2 241731Z 18015KT 29/19 A2984 RMK A01 T02920186  RH  053%=      5-min Rain = 0
KCO2 241732Z 17013KT 29/19 A2984 RMK A01 T02930186  RH  053%=      5-min Rain = 0
KCO2 241733Z 16017G22KT 29/19 A2984 RMK A01 T02920187  RH  053%=      5-min Rain = 0
KCO2 241734Z 16015KT 29/19 A2984 RMK A01 T02900185  RH  053%=      5-min Rain = 0
KCO2 241735Z 16016G23KT 29/19 A2984 RMK A01 T02870186  RH  054%=      5-min Rain = 0
KCO2 241736Z 17015KT 29/19 A2984 RMK A01 T02890187  RH  054%=      5-min Rain = 0
KCO2 241737Z 18019KT 29/19 A2984 RMK A01 T02930186  RH  052%=      5-min Rain = 0
KCO2 241738Z 17017KT 29/18 A2984 RMK A01 T02920184  RH  052%=      5-min Rain = 0
KCO2 241739Z 17013KT 29/19 A2984 RMK A01 T02900186  RH  053%=      5-min Rain = 0
KCO2 241740Z 19016KT 29/19 A2984 RMK A01 T02910187  RH  053%=      5-min Rain = 0
KCO2 241741Z 16012G20KT 29/19 A2983 RMK A01 T02930187  RH  053%=      5-min Rain = 0
KCO2 241742Z 15021KT 30/19 A2983 RMK A01 T02950187  RH  052%=      5-min Rain = 0
KCO2 241743Z 17015KT 29/19 A2983 RMK A01 T02930186  RH  052%=      5-min Rain = 0
KCO2 241744Z 16019KT 29/19 A2983 RMK A01 T02920186  RH  053%=      5-min Rain = 0
KCO2 241745Z 15018KT 29/19 A2983 RMK A01 T02920186  RH  053%=      5-min Rain = 0
KCO2 241746Z 16018KT 29/19 A2983 RMK A01 T02920185  RH  053%=      5-min Rain = 0
KCO2 241747Z 18016KT 29/19 A2983 RMK A01 T02900185  RH  053%=      5-min Rain = 0
KCO2 241748Z 18017KT 29/19 A2983 RMK A01 T02900185  RH  053%=      5-min Rain = 0
KCO2 241749Z 18013G18KT 29/19 A2983 RMK A01 T02930185  RH  052%=      5-min Rain = 0
KCO2 241750Z 17012KT 29/19 A2983 RMK A01 T02930186  RH  053%=      5-min Rain = 0
KCO2 241751Z 17017G23KT 29/19 A2983 RMK A01 T02940187  RH  053%=      5-min Rain = 0
KCO2 241752Z 17016G21KT 30/19 A2983 RMK A01 T02960185  RH  051%=      5-min Rain = 0
KCO2 241753Z 17018G23KT 30/19 A2983 RMK A01 T02960186  RH  052%=      5-min Rain = 0
KCO2 241754Z 18016KT 29/18 A2982 RMK A01 T02930184  RH  052%=      5-min Rain = 0
KCO2 241755Z 17019G25KT 29/18 A2982 RMK A01 T02910184  RH  053%=      5-min Rain = 0
KCO2 241756Z 18019G25KT 29/18 A2982 RMK A01 T02910182  RH  052%=      5-min Rain = 0
KCO2 241757Z 18016G21KT 29/19 A2982 RMK A01 T02940185  RH  052%=      5-min Rain = 0
KCO2 241758Z 18017KT 30/19 A2982 RMK A01 T02970185  RH  051%=      5-min Rain = 0
KCO2 241759Z 19017KT 30/19 A2982 RMK A01 T02980185  RH  051%=      5-min Rain = 0
KCO2 241800Z 19017KT 30/19 A2982 RMK A01 T02980185  RH  051%=      5-min Rain = 0
KCO2 241801Z 17012G18KT 30/19 A2982 RMK A01 T02960186  RH  052%=      5-min Rain = 0
KCO2 241802Z 18016G23KT 30/19 A2982 RMK A01 T02980187  RH  052%=      5-min Rain = 0
KCO2 241803Z 18018KT 30/19 A2982 RMK A01 T03010186  RH  050%=      5-min Rain = 0
KCO2 241804Z 17018G23KT 30/18 A2982 RMK A01 T03020183  RH  049%=      5-min Rain = 0
KCO2 241805Z 18012KT 30/18 A2982 RMK A01 T03010183  RH  049%=      5-min Rain = 0
KCO2 241806Z 19013KT 30/18 A2982 RMK A01 T03000184  RH  050%=      5-min Rain = 0
KCO2 241807Z 17014G20KT 30/18 A2981 RMK A01 T02980184  RH  050%=      5-min Rain = 0
KCO2 241808Z 17017KT 30/18 A2981 RMK A01 T02980184  RH  050%=      5-min Rain = 0
KCO2 241809Z 16018KT 30/18 A2981 RMK A01 T02980184  RH  051%=      5-min Rain = 0
KCO2 241810Z 16020G25KT 30/18 A2981 RMK A01 T02960184  RH  051%=      5-min Rain = 0
KCO2 241811Z 17018G23KT 30/19 A2981 RMK A01 T02960185  RH  051%=      5-min Rain = 0
KCO2 241812Z 17012KT 30/19 A2981 RMK A01 T02980186  RH  051%=      5-min Rain = 0
KCO2 241813Z 18015G21KT 30/19 A2981 RMK A01 T03000185  RH  050%=      5-min Rain = 0
KCO2 241814Z 18014G20KT 30/19 A2981 RMK A01 T03000186  RH  050%=      5-min Rain = 0
KCO2 241815Z 18016KT 30/19 A2981 RMK A01 T03030188  RH  050%=      5-min Rain = 0
KCO2 241816Z 17012KT 30/19 A2981 RMK A01 T03040185  RH  049%=      5-min Rain = 0
KCO2 241817Z 16015G20KT 30/19 A2981 RMK A01 T03030187  RH  050%=      5-min Rain = 0
KCO2 241818Z 17013G18KT 30/19 A298 RMK A01 T03030187  RH  050%=      5-min Rain = 0
KCO2 241819Z 16012G21KT 31/19 A298 RMK A01 T03060190  RH  050%=      5-min Rain = 0
KCO2 241820Z 16017KT 31/19 A2981 RMK A01 T03100189  RH  049%=      5-min Rain = 0
KCO2 241821Z 17015KT 31/19 A2981 RMK A01 T03090186  RH  048%=      5-min Rain = 0
KCO2 241822Z 18016KT 31/19 A298 RMK A01 T03060185  RH  048%=      5-min Rain = 0
KCO2 241823Z 17015G21KT 31/19 A298 RMK A01 T03050186  RH  049%=      5-min Rain = 0
KCO2 241824Z 18014KT 31/19 A298 RMK A01 T03060186  RH  049%=      5-min Rain = 0
KCO2 241825Z 15015KT 31/19 A298 RMK A01 T03050186  RH  049%=      5-min Rain = 0
KCO2 241826Z 16020KT 31/18 A298 RMK A01 T03050184  RH  048%=      5-min Rain = 0
KCO2 241827Z 16018G24KT 31/18 A298 RMK A01 T03050184  RH  048%=      5-min Rain = 0
KCO2 241828Z 17017KT 31/18 A298 RMK A01 T03060184  RH  048%=      5-min Rain = 0
KCO2 241829Z 17015KT 31/19 A298 RMK A01 T03070185  RH  048%=      5-min Rain = 0
KCO2 241830Z 17019KT 31/19 A298 RMK A01 T03090186  RH  048%=      5-min Rain = 0
KCO2 241831Z 17013KT 31/19 A298 RMK A01 T03100185  RH  047%=      5-min Rain = 0
KCO2 241832Z 18018G23KT 31/19 A298 RMK A01 T03090186  RH  048%=      5-min Rain = 0
KCO2 241833Z 19016KT 31/19 A298 RMK A01 T03080185  RH  048%=      5-min Rain = 0
KCO2 241834Z 18014KT 31/19 A298 RMK A01 T03080186  RH  048%=      5-min Rain = 0
KCO2 241835Z 19013KT 31/19 A298 RMK A01 T03110188  RH  048%=      5-min Rain = 0
KCO2 241836Z 18011KT 31/19 A298 RMK A01 T03130188  RH  047%=      5-min Rain = 0
KCO2 241837Z 17014KT 32/19 A298 RMK A01 T03160189  RH  047%=      5-min Rain = 0
KCO2 241838Z 16018KT 31/19 A298 RMK A01 T03130187  RH  047%=      5-min Rain = 0
KCO2 241839Z 17018KT 31/19 A298 RMK A01 T03110186  RH  047%=      5-min Rain = 0
KCO2 241840Z 18016KT 31/19 A298 RMK A01 T03100187  RH  048%=      5-min Rain = 0
KCO2 241841Z 19016KT 31/18 A298 RMK A01 T03110184  RH  047%=      5-min Rain = 0
KCO2 241842Z 19015KT 31/18 A298 RMK A01 T03090182  RH  047%=      5-min Rain = 0
KCO2 241843Z 18016KT 31/18 A2979 RMK A01 T03090184  RH  047%=      5-min Rain = 0
KCO2 241844Z 18017G22KT 31/18 A2979 RMK A01 T03100182  RH  046%=      5-min Rain = 0
KCO2 241845Z 19010KT 31/18 A2979 RMK A01 T03070183  RH  047%=      5-min Rain = 0
KCO2 241846Z 17013KT 31/18 A2979 RMK A01 T03050184  RH  048%=      5-min Rain = 0
KCO2 241847Z 17015G22KT 30/18 A2979 RMK A01 T03040184  RH  049%=      5-min Rain = 0
KCO2 241848Z 17019KT 31/19 A2979 RMK A01 T03050185  RH  049%=      5-min Rain = 0
KCO2 241849Z 16016G21KT 31/18 A2979 RMK A01 T03070183  RH  048%=      5-min Rain = 0
KCO2 241850Z 16016G21KT 31/19 A2979 RMK A01 T03070185  RH  048%=      5-min Rain = 0
KCO2 241851Z 17016KT 31/18 A2979 RMK A01 T03080183  RH  047%=      5-min Rain = 0
KCO2 241852Z 18016G22KT 31/18 A2979 RMK A01 T03090183  RH  047%=      5-min Rain = 0
KCO2 241853Z 19015KT 31/18 A2979 RMK A01 T03110182  RH  046%=      5-min Rain = 0
KCO2 241854Z 20011KT 31/19 A2979 RMK A01 T03130186  RH  047%=      5-min Rain = 0
KCO2 241855Z 18015KT 32/19 A2979 RMK A01 T03150188  RH  047%=      5-min Rain = 0
KCO2 241856Z 17018G23KT 32/19 A2979 RMK A01 T03180188  RH  046%=      5-min Rain = 0
KCO2 241857Z 18018KT 32/19 A2979 RMK A01 T03180185  RH  045%=      5-min Rain = 0
KCO2 241858Z 18013KT 31/18 A2979 RMK A01 T03140184  RH  046%=      5-min Rain = 0
KCO2 241859Z 18012G17KT 31/19 A2979 RMK A01 T03120187  RH  047%=      5-min Rain = 0
KCO2 241900Z 17017KT 32/19 A2979 RMK A01 T03150188  RH  047%=      5-min Rain = 0
KCO2 241901Z 16012KT 32/19 A2979 RMK A01 T03150185  RH  046%=      5-min Rain = 0
KCO2 241902Z 16015KT 31/19 A2979 RMK A01 T03120187  RH  047%=      5-min Rain = 0
KCO2 241903Z 16018G25KT 32/19 A2979 RMK A01 T03150188  RH  047%=      5-min Rain = 0
KCO2 241904Z 18019KT 32/19 A2979 RMK A01 T03180186  RH  046%=      5-min Rain = 0
KCO2 241905Z 17015KT 32/19 A2979 RMK A01 T03180187  RH  046%=      5-min Rain = 0
KCO2 241906Z 15012KT 31/19 A2979 RMK A01 T03140185  RH  046%=      5-min Rain = 0
KCO2 241907Z 15014KT 31/19 A2979 RMK A01 T03080186  RH  048%=      5-min Rain = 0
KCO2 241908Z 15014KT 31/19 A2978 RMK A01 T03060185  RH  048%=      5-min Rain = 0
KCO2 241909Z 16016KT 31/19 A2978 RMK A01 T03100187  RH  048%=      5-min Rain = 0
KCO2 241910Z 17014KT 32/19 A2978 RMK A01 T03150186  RH  046%=      5-min Rain = 0
KCO2 241911Z 16014KT 32/19 A2978 RMK A01 T03160186  RH  046%=      5-min Rain = 0
KCO2 241912Z 16018G24KT 32/19 A2978 RMK A01 T03190187  RH  045%=      5-min Rain = 0
KCO2 241913Z 16018KT 32/18 A2978 RMK A01 T03190184  RH  045%=      5-min Rain = 0
KCO2 241914Z 17017G22KT 32/18 A2978 RMK A01 T03160184  RH  046%=      5-min Rain = 0
KCO2 241915Z 17016G22KT 32/18 A2978 RMK A01 T03150183  RH  045%=      5-min Rain = 0
KCO2 241916Z 16017KT 32/19 A2978 RMK A01 T03170185  RH  046%=      5-min Rain = 0
KCO2 241917Z 15020KT 32/18 A2978 RMK A01 T03190183  RH  044%=      5-min Rain = 0
KCO2 241918Z 15015KT 32/18 A2978 RMK A01 T03160183  RH  045%=      5-min Rain = 0
KCO2 241919Z 15014G19KT 32/19 A2978 RMK A01 T03150185  RH  046%=      5-min Rain = 0
KCO2 241920Z 15017G23KT 32/18 A2978 RMK A01 T03170182  RH  045%=      5-min Rain = 0
KCO2 241921Z 16016G21KT 32/18 A2978 RMK A01 T03170184  RH  045%=      5-min Rain = 0
KCO2 241922Z 16017KT 32/19 A2978 RMK A01 T03200185  RH  045%=      5-min Rain = 0
KCO2 241923Z 15011KT 32/19 A2978 RMK A01 T03210187  RH  045%=      5-min Rain = 0
KCO2 241924Z 15015G21KT 32/19 A2978 RMK A01 T03210186  RH  045%=      5-min Rain = 0
KCO2 241925Z 15020G25KT 32/18 A2977 RMK A01 T03200184  RH  044%=      5-min Rain = 0
KCO2 241926Z 16013KT 32/18 A2977 RMK A01 T03150183  RH  045%=      5-min Rain = 0
KCO2 241927Z 18020KT 32/18 A2977 RMK A01 T03160184  RH  045%=      5-min Rain = 0
KCO2 241928Z 18017G22KT 32/18 A2977 RMK A01 T03170182  RH  045%=      5-min Rain = 0
KCO2 241929Z 17018KT 32/18 A2977 RMK A01 T03160183  RH  045%=      5-min Rain = 0
KCO2 241930Z 15018KT 32/18 A2977 RMK A01 T03160182  RH  045%=      5-min Rain = 0
KCO2 241931Z 16020KT 32/18 A2977 RMK A01 T03160180  RH  044%=      5-min Rain = 0
KCO2 241932Z 16016KT 32/18 A2977 RMK A01 T03160181  RH  045%=      5-min Rain = 0
KCO2 241933Z 15014KT 32/18 A2977 RMK A01 T03170183  RH  045%=      5-min Rain = 0
KCO2 241934Z 17018KT 32/18 A2977 RMK A01 T03170182  RH  044%=      5-min Rain = 0
KCO2 241935Z 18019KT 32/18 A2977 RMK A01 T03170180  RH  044%=      5-min Rain = 0
KCO2 241936Z 17017KT 32/18 A2977 RMK A01 T03170180  RH  044%=      5-min Rain = 0
KCO2 241937Z 16017KT 32/18 A2976 RMK A01 T03190180  RH  044%=      5-min Rain = 0
KCO2 241938Z 16018KT 32/18 A2976 RMK A01 T03210180  RH  043%=      5-min Rain = 0
KCO2 241939Z 17015KT 32/18 A2976 RMK A01 T03210179  RH  043%=      5-min Rain = 0
KCO2 241940Z 19015G20KT 32/18 A2976 RMK A01 T03190179  RH  043%=      5-min Rain = 0
KCO2 241941Z 17018KT 32/18 A2976 RMK A01 T03170181  RH  044%=      5-min Rain = 0
KCO2 241942Z 17019KT 32/18 A2976 RMK A01 T03180183  RH  045%=      5-min Rain = 0
KCO2 241943Z 17014KT 32/18 A2976 RMK A01 T03210182  RH  044%=      5-min Rain = 0
KCO2 241944Z 18014G19KT 32/19 A2976 RMK A01 T03230185  RH  044%=      5-min Rain = 0
KCO2 241945Z 18014KT 32/18 A2976 RMK A01 T03240182  RH  043%=      5-min Rain = 0
KCO2 241946Z 18013KT 32/18 A2976 RMK A01 T03200180  RH  043%=      5-min Rain = 0
KCO2 241947Z 18017G22KT 32/18 A2976 RMK A01 T03190176  RH  043%=      5-min Rain = 0
KCO2 241948Z 19016G22KT 32/17 A2976 RMK A01 T03180172  RH  042%=      5-min Rain = 0
KCO2 241949Z 19016KT 32/17 A2976 RMK A01 T03190174  RH  042%=      5-min Rain = 0
KCO2 241950Z 18014KT 32/18 A2976 RMK A01 T03220176  RH  042%=      5-min Rain = 0
KCO2 241951Z 18019KT 33/18 A2976 RMK A01 T03260179  RH  042%=      5-min Rain = 0
KCO2 241952Z 18015KT 33/18 A2976 RMK A01 T03260179  RH  041%=      5-min Rain = 0
KCO2 241953Z 18014KT 33/18 A2976 RMK A01 T03260180  RH  042%=      5-min Rain = 0
KCO2 241954Z 18014KT 33/18 A2976 RMK A01 T03260180  RH  042%=      5-min Rain = 0
KCO2 241955Z 18017G23KT 33/18 A2976 RMK A01 T03280181  RH  042%=      5-min Rain = 0
KCO2 241956Z 17014KT 33/18 A2976 RMK A01 T03280181  RH  042%=      5-min Rain = 0
KCO2 241957Z 17013KT 33/18 A2976 RMK A01 T03280181  RH  042%=      5-min Rain = 0
KCO2 241958Z 18015G20KT 33/18 A2975 RMK A01 T03290181  RH  041%=      5-min Rain = 0
KCO2 241959Z 19017KT 33/18 A2975 RMK A01 T03280176  RH  040%=      5-min Rain = 0
KCO2 242000Z 17015KT 33/18 A2975 RMK A01 T03260178  RH  041%=      5-min Rain = 0
KCO2 242001Z 18015KT 33/18 A2975 RMK A01 T03300176  RH  040%=      5-min Rain = 0
KCO2 242002Z 18014KT 33/18 A2975 RMK A01 T03300176  RH  040%=      5-min Rain = 0
KCO2 242003Z 17014KT 33/18 A2975 RMK A01 T03280179  RH  041%=      5-min Rain = 0
KCO2 242004Z 16012KT 32/18 A2975 RMK A01 T03240178  RH  042%=      5-min Rain = 0
KCO2 242005Z 17013KT 32/18 A2975 RMK A01 T03210180  RH  043%=      5-min Rain = 0
KCO2 242006Z 17015KT 32/18 A2975 RMK A01 T03230176  RH  042%=      5-min Rain = 0
KCO2 242007Z 18015KT 33/18 A2975 RMK A01 T03250178  RH  041%=      5-min Rain = 0
KCO2 242008Z 20013G18KT 33/18 A2975 RMK A01 T03280176  RH  040%=      5-min Rain = 0
KCO2 242009Z 18011KT 33/18 A2975 RMK A01 T03270179  RH  042%=      5-min Rain = 0
KCO2 242010Z 17017KT 33/18 A2975 RMK A01 T03260178  RH  041%=      5-min Rain = 0
KCO2 242011Z 17017KT 32/18 A2975 RMK A01 T03220175  RH  042%=      5-min Rain = 0
KCO2 242012Z 17015KT 32/18 A2975 RMK A01 T03210176  RH  042%=      5-min Rain = 0
KCO2 242013Z 17014KT 32/18 A2975 RMK A01 T03230176  RH  042%=      5-min Rain = 0
KCO2 242014Z 16013KT 33/18 A2974 RMK A01 T03260178  RH  041%=      5-min Rain = 0
KCO2 242015Z 17009KT 33/18 A2974 RMK A01 T03280177  RH  041%=      5-min Rain = 0
KCO2 242016Z 17010KT 33/18 A2974 RMK A01 T03280176  RH  040%=      5-min Rain = 0
KCO2 242017Z 17013KT 33/18 A2974 RMK A01 T03300179  RH  041%=      5-min Rain = 0
KCO2 242018Z 18016G22KT 33/18 A2974 RMK A01 T03310176  RH  040%=      5-min Rain = 0
KCO2 242019Z 19014KT 33/17 A2974 RMK A01 T03290174  RH  040%=      5-min Rain = 0
KCO2 242020Z 19009KT 33/18 A2974 RMK A01 T03250175  RH  041%=      5-min Rain = 0
KCO2 242021Z 16013KT 33/18 A2974 RMK A01 T03270179  RH  041%=      5-min Rain = 0
KCO2 242022Z 17012KT 33/18 A2974 RMK A01 T03310180  RH  041%=      5-min Rain = 0
KCO2 242023Z 20015KT 33/18 A2974 RMK A01 T03340177  RH  039%=      5-min Rain = 0
KCO2 242024Z 20015KT 34/17 A2974 RMK A01 T03350174  RH  038%=      5-min Rain = 0
KCO2 242025Z 20015KT 34/17 A2974 RMK A01 T03350173  RH  038%=      5-min Rain = 0
KCO2 242026Z 20015KT 34/17 A2974 RMK A01 T03350173  RH  038%=      5-min Rain = 0
KCO2 242027Z 20014G19KT 34/17 A2974 RMK A01 T03350172  RH  038%=      5-min Rain = 0
KCO2 242028Z 20013KT 33/17 A2974 RMK A01 T03340173  RH  038%=      5-min Rain = 0
KCO2 242029Z 18010KT 34/18 A2974 RMK A01 T03360176  RH  039%=      5-min Rain = 0
KCO2 242030Z 16016KT 34/18 A2974 RMK A01 T03380180  RH  039%=      5-min Rain = 0
KCO2 242031Z 16012KT 34/18 A2973 RMK A01 T03360179  RH  039%=      5-min Rain = 0
KCO2 242032Z 16012KT 33/18 A2973 RMK A01 T03330180  RH  040%=      5-min Rain = 0
KCO2 242033Z 17016G22KT 33/18 A2973 RMK A01 T03330179  RH  040%=      5-min Rain = 0
KCO2 242034Z 18017KT 34/18 A2973 RMK A01 T03350178  RH  039%=      5-min Rain = 0
KCO2 242035Z 16016KT 34/18 A2973 RMK A01 T03350178  RH  039%=      5-min Rain = 0
KCO2 242036Z 17019KT 33/18 A2973 RMK A01 T03340178  RH  040%=      5-min Rain = 0
KCO2 242037Z 17016KT 33/18 A2973 RMK A01 T03320175  RH  039%=      5-min Rain = 0
KCO2 242038Z 16013KT 33/18 A2973 RMK A01 T03320179  RH  040%=      5-min Rain = 0
KCO2 242039Z 15015KT 34/18 A2973 RMK A01 T03350176  RH  039%=      5-min Rain = 0
KCO2 242040Z 16011KT 33/18 A2973 RMK A01 T03340176  RH  039%=      5-min Rain = 0
KCO2 242041Z 16014KT 34/18 A2972 RMK A01 T03360178  RH  039%=      5-min Rain = 0
KCO2 242042Z 15015KT 34/18 A2972 RMK A01 T03370176  RH  039%=      5-min Rain = 0
KCO2 242043Z 16014KT 34/18 A2972 RMK A01 T03370176  RH  039%=      5-min Rain = 0
KCO2 242044Z 18014KT 34/18 A2972 RMK A01 T03360178  RH  039%=      5-min Rain = 0
KCO2 242045Z 19015KT 34/18 A2972 RMK A01 T03360175  RH  038%=      5-min Rain = 0
KCO2 242046Z 19013KT 33/18 A2972 RMK A01 T03320175  RH  039%=      5-min Rain = 0
KCO2 242047Z 17015KT 33/18 A2972 RMK A01 T03330179  RH  040%=      5-min Rain = 0
KCO2 242048Z 17018KT 34/18 A2972 RMK A01 T03350178  RH  039%=      5-min Rain = 0
KCO2 242049Z 18016KT 34/18 A2972 RMK A01 T03370178  RH  039%=      5-min Rain = 0
KCO2 242050Z 18015KT 34/18 A2972 RMK A01 T03380178  RH  039%=      5-min Rain = 0
KCO2 242051Z 18013KT 34/18 A2971 RMK A01 T03370179  RH  039%=      5-min Rain = 0
KCO2 242052Z 18011KT 34/18 A2971 RMK A01 T03380180  RH  039%=      5-min Rain = 0
KCO2 242053Z 15011KT 34/18 A2971 RMK A01 T03380183  RH  040%=      5-min Rain = 0
KCO2 242054Z 14013KT 34/18 A2971 RMK A01 T03390184  RH  040%=      5-min Rain = 0
KCO2 242055Z 17015KT 34/18 A2971 RMK A01 T03390182  RH  039%=      5-min Rain = 0
KCO2 242056Z 17013KT 34/18 A2971 RMK A01 T03400176  RH  038%=      5-min Rain = 0
KCO2 242057Z 18016KT 34/17 A2971 RMK A01 T03400174  RH  037%=      5-min Rain = 0
KCO2 242058Z 18013KT 34/17 A2971 RMK A01 T03390173  RH  037%=      5-min Rain = 0
KCO2 242059Z 18009KT 34/17 A2971 RMK A01 T03360171  RH  037%=      5-min Rain = 0
KCO2 242100Z 16011G16KT 34/18 A297 RMK A01 T03350177  RH  039%=      5-min Rain = 0
KCO2 242101Z 17010KT 34/18 A297 RMK A01 T03370176  RH  038%=      5-min Rain = 0
KCO2 242102Z 16009KT 34/18 A297 RMK A01 T03350175  RH  039%=      5-min Rain = 0
KCO2 242103Z 16009KT 33/18 A297 RMK A01 T03310179  RH  040%=      5-min Rain = 0
KCO2 242104Z 14010KT 33/18 A297 RMK A01 T03290179  RH  041%=      5-min Rain = 0
KCO2 242105Z 18013G19KT 33/18 A297 RMK A01 T03290179  RH  041%=      5-min Rain = 0
KCO2 242106Z 20015G20KT 34/17 A297 RMK A01 T03350174  RH  038%=      5-min Rain = 0
KCO2 242107Z 19016KT 34/17 A297 RMK A01 T03370168  RH  037%=      5-min Rain = 0
KCO2 242108Z 19012G17KT 33/17 A297 RMK A01 T03340167  RH  037%=      5-min Rain = 0
KCO2 242109Z 19010KT 33/17 A297 RMK A01 T03340169  RH  037%=      5-min Rain = 0
KCO2 242110Z 21009KT 34/17 A297 RMK A01 T03350170  RH  037%=      5-min Rain = 0
KCO2 242111Z 20008KT 34/17 A297 RMK A01 T03360172  RH  038%=      5-min Rain = 0
KCO2 242112Z 19012KT 34/17 A297 RMK A01 T03370171  RH  037%=      5-min Rain = 0
KCO2 242113Z 17013KT 34/17 A2969 RMK A01 T03360169  RH  037%=      5-min Rain = 0
KCO2 242114Z 18015KT 34/17 A2969 RMK A01 T03360165  RH  036%=      5-min Rain = 0
KCO2 242115Z 19011G16KT 34/16 A2969 RMK A01 T03370163  RH  036%=      5-min Rain = 0
KCO2 242116Z 15010G16KT 34/17 A2969 RMK A01 T03360169  RH  037%=      5-min Rain = 0
KCO2 242117Z 17011G16KT 34/17 A2969 RMK A01 T03360172  RH  038%=      5-min Rain = 0
KCO2 242118Z 16014KT 34/17 A2969 RMK A01 T03370174  RH  038%=      5-min Rain = 0
KCO2 242119Z 16012KT 34/18 A2969 RMK A01 T03370177  RH  039%=      5-min Rain = 0
KCO2 242120Z 16014KT 34/18 A2969 RMK A01 T03390177  RH  038%=      5-min Rain = 0
KCO2 242121Z 17012KT 34/18 A2969 RMK A01 T03390178  RH  039%=      5-min Rain = 0
KCO2 242122Z 20012G17KT 34/18 A2969 RMK A01 T03380177  RH  038%=      5-min Rain = 0
KCO2 242123Z 22008KT 34/18 A2969 RMK A01 T03370175  RH  038%=      5-min Rain = 0
KCO2 242124Z 17006KT 34/18 A2969 RMK A01 T03360179  RH  039%=      5-min Rain = 0
KCO2 242125Z 14009KT 34/18 A2969 RMK A01 T03390180  RH  039%=      5-min Rain = 0
KCO2 242126Z 15014KT 34/18 A2969 RMK A01 T03400181  RH  039%=      5-min Rain = 0
KCO2 242127Z 16016KT 34/18 A2968 RMK A01 T03390177  RH  038%=      5-min Rain = 0
KCO2 242128Z 16015KT 34/18 A2969 RMK A01 T03370176  RH  038%=      5-min Rain = 0
KCO2 242129Z 16011KT 34/18 A2968 RMK A01 T03360176  RH  039%=      5-min Rain = 0
KCO2 242130Z 15011KT 34/18 A2968 RMK A01 T03350177  RH  039%=      5-min Rain = 0
KCO2 242131Z 15008KT 33/18 A2968 RMK A01 T03340177  RH  039%=      5-min Rain = 0
KCO2 242132Z 15010KT 34/18 A2968 RMK A01 T03350183  RH  041%=      5-min Rain = 0
KCO2 242133Z 13010KT 34/18 A2968 RMK A01 T03380181  RH  040%=      5-min Rain = 0
KCO2 242134Z 14012KT 34/18 A2968 RMK A01 T03380182  RH  040%=      5-min Rain = 0
KCO2 242135Z 14009KT 34/18 A2968 RMK A01 T03370181  RH  040%=      5-min Rain = 0
KCO2 242136Z 14013KT 34/18 A2968 RMK A01 T03370184  RH  040%=      5-min Rain = 0
KCO2 242137Z 14013KT 34/18 A2968 RMK A01 T03370184  RH  040%=      5-min Rain = 0
KCO2 242138Z 14014KT 34/18 A2968 RMK A01 T03380181  RH  039%=      5-min Rain = 0
KCO2 242139Z 15011KT 34/18 A2968 RMK A01 T03400177  RH  038%=      5-min Rain = 0
KCO2 242140Z 17010KT 34/18 A2968 RMK A01 T03390177  RH  038%=      5-min Rain = 0
KCO2 242141Z 17010KT 34/18 A2968 RMK A01 T03350176  RH  039%=      5-min Rain = 0
KCO2 242142Z 15011KT 33/18 A2968 RMK A01 T03310175  RH  040%=      5-min Rain = 0
KCO2 242143Z 14010KT 33/18 A2968 RMK A01 T03300178  RH  041%=      5-min Rain = 0
KCO2 242144Z 12013KT 33/18 A2968 RMK A01 T03310179  RH  041%=      5-min Rain = 0
KCO2 242145Z 13012KT 33/18 A2968 RMK A01 T03300176  RH  040%=      5-min Rain = 0
KCO2 242146Z 13014KT 33/18 A2968 RMK A01 T03280178  RH  041%=      5-min Rain = 0
KCO2 242147Z 14011KT 33/18 A2968 RMK A01 T03260176  RH  041%=      5-min Rain = 0
KCO2 242148Z 15008KT 32/18 A2968 RMK A01 T03220176  RH  042%=      5-min Rain = 0
KCO2 242149Z 19011KT 32/18 A2968 RMK A01 T03220175  RH  042%=      5-min Rain = 0
KCO2 242150Z 17011KT 32/17 A2968 RMK A01 T03220168  RH  040%=      5-min Rain = 0
KCO2 242151Z 16013KT 32/17 A2968 RMK A01 T03240173  RH  041%=      5-min Rain = 0
KCO2 242152Z 18014KT 33/18 A2968 RMK A01 T03290175  RH  040%=      5-min Rain = 0
KCO2 242153Z 16017KT 33/17 A2968 RMK A01 T03320174  RH  039%=      5-min Rain = 0
KCO2 242154Z 15014G20KT 33/18 A2968 RMK A01 T03330176  RH  039%=      5-min Rain = 0
KCO2 242155Z 14011KT 33/18 A2968 RMK A01 T03330177  RH  040%=      5-min Rain = 0
KCO2 242156Z 15013KT 33/18 A2968 RMK A01 T03310177  RH  040%=      5-min Rain = 0
KCO2 242157Z 13010KT 33/18 A2968 RMK A01 T03290177  RH  040%=      5-min Rain = 0
KCO2 242158Z 13014KT 33/18 A2967 RMK A01 T03280176  RH  040%=      5-min Rain = 0
KCO2 242159Z 15014KT 33/18 A2967 RMK A01 T03260175  RH  041%=      5-min Rain = 0
KCO2 242200Z 16014KT 33/17 A2967 RMK A01 T03250170  RH  040%=      5-min Rain = 0
KCO2 242201Z 16013KT 33/17 A2967 RMK A01 T03250169  RH  039%=      5-min Rain = 0
KCO2 242202Z 16014KT 33/17 A2967 RMK A01 T03250167  RH  039%=      5-min Rain = 0
KCO2 242203Z 15014KT 32/17 A2967 RMK A01 T03240165  RH  039%=      5-min Rain = 0
KCO2 242204Z 16014KT 32/17 A2968 RMK A01 T03220167  RH  039%=      5-min Rain = 0
KCO2 242205Z 18012KT 32/17 A2967 RMK A01 T03220167  RH  039%=      5-min Rain = 0
KCO2 242206Z 16013KT 32/17 A2967 RMK A01 T03220167  RH  040%=      5-min Rain = 0
KCO2 242207Z 17011KT 32/17 A2967 RMK A01 T03220166  RH  039%=      5-min Rain = 0
KCO2 242208Z 14006KT 32/17 A2967 RMK A01 T03210167  RH  040%=      5-min Rain = 0
KCO2 242209Z 17010G19KT 32/17 A2967 RMK A01 T03200168  RH  040%=      5-min Rain = 0
KCO2 242210Z 16015KT 32/17 A2967 RMK A01 T03210166  RH  040%=      5-min Rain = 0
KCO2 242211Z 15012G17KT 32/17 A2967 RMK A01 T03210167  RH  040%=      5-min Rain = 0
KCO2 242212Z 16013KT 32/17 A2967 RMK A01 T03220169  RH  040%=      5-min Rain = 0
KCO2 242213Z 16015KT 32/17 A2967 RMK A01 T03230166  RH  039%=      5-min Rain = 0
KCO2 242214Z 16012KT 32/17 A2967 RMK A01 T03220165  RH  039%=      5-min Rain = 0
KCO2 242215Z 17014KT 32/16 A2967 RMK A01 T03230164  RH  039%=      5-min Rain = 0
KCO2 242216Z 17013KT 32/16 A2967 RMK A01 T03230162  RH  038%=      5-min Rain = 0
KCO2 242217Z 17013KT 32/16 A2967 RMK A01 T03230162  RH  038%=      5-min Rain = 0
KCO2 242218Z 18010KT 32/16 A2967 RMK A01 T03220162  RH  038%=      5-min Rain = 0
KCO2 242219Z 16011G16KT 32/16 A2967 RMK A01 T03210163  RH  039%=      5-min Rain = 0
KCO2 242220Z 18011KT 32/16 A2967 RMK A01 T03210162  RH  039%=      5-min Rain = 0
KCO2 242221Z 18010KT 32/16 A2967 RMK A01 T03210163  RH  039%=      5-min Rain = 0
KCO2 242222Z 17010KT 32/16 A2967 RMK A01 T03210163  RH  039%=      5-min Rain = 0
KCO2 242223Z 16011KT 32/16 A2967 RMK A01 T03220163  RH  039%=      5-min Rain = 0
KCO2 242224Z 16012KT 32/16 A2967 RMK A01 T03220161  RH  038%=      5-min Rain = 0
KCO2 242225Z 17009KT 32/16 A2967 RMK A01 T03210160  RH  038%=      5-min Rain = 0
KCO2 242226Z 16011G16KT 32/16 A2967 RMK A01 T03210162  RH  038%=      5-min Rain = 0
KCO2 242227Z 17011KT 32/16 A2967 RMK A01 T03210162  RH  038%=      5-min Rain = 0
KCO2 242228Z 15013G19KT 32/16 A2966 RMK A01 T03210162  RH  038%=      5-min Rain = 0
KCO2 242229Z 16016KT 32/16 A2966 RMK A01 T03210160  RH  038%=      5-min Rain = 0
KCO2 242230Z 16012KT 32/16 A2966 RMK A01 T03200161  RH  038%=      5-min Rain = 0
KCO2 242231Z 16010KT 32/16 A2966 RMK A01 T03200163  RH  039%=      5-min Rain = 0
KCO2 242232Z 17011KT 32/17 A2966 RMK A01 T03190165  RH  039%=      5-min Rain = 0
KCO2 242233Z 15013KT 32/16 A2966 RMK A01 T03200164  RH  039%=      5-min Rain = 0
KCO2 242234Z 16014KT 32/16 A2966 RMK A01 T03200162  RH  039%=      5-min Rain = 0
KCO2 242235Z 17013KT 32/16 A2966 RMK A01 T03200160  RH  038%=      5-min Rain = 0
KCO2 242236Z 15010KT 32/16 A2966 RMK A01 T03210163  RH  039%=      5-min Rain = 0
KCO2 242237Z 16010KT 32/17 A2966 RMK A01 T03210165  RH  039%=      5-min Rain = 0
KCO2 242238Z 17010KT 32/17 A2966 RMK A01 T03210165  RH  039%=      5-min Rain = 0
KCO2 242239Z 18015KT 32/16 A2966 RMK A01 T03210164  RH  039%=      5-min Rain = 0
KCO2 242240Z 17013KT 32/16 A2966 RMK A01 T03220163  RH  038%=      5-min Rain = 0
KCO2 242241Z 15011KT 32/16 A2966 RMK A01 T03220164  RH  039%=      5-min Rain = 0
KCO2 242242Z 17011KT 32/17 A2966 RMK A01 T03220167  RH  039%=      5-min Rain = 0
KCO2 242243Z 17014KT 32/17 A2966 RMK A01 T03220165  RH  039%=      5-min Rain = 0
KCO2 242244Z 17010KT 32/17 A2966 RMK A01 T03230167  RH  039%=      5-min Rain = 0
KCO2 242245Z 16012KT 32/17 A2966 RMK A01 T03230169  RH  040%=      5-min Rain = 0
KCO2 242246Z 14014KT 32/17 A2966 RMK A01 T03230169  RH  040%=      5-min Rain = 0
KCO2 242247Z 15018KT 32/17 A2966 RMK A01 T03220169  RH  040%=      5-min Rain = 0
KCO2 242248Z 16018KT 32/17 A2966 RMK A01 T03210168  RH  040%=      5-min Rain = 0
KCO2 242249Z 16014KT 32/17 A2966 RMK A01 T03200168  RH  040%=      5-min Rain = 0
KCO2 242250Z 17015KT 32/17 A2966 RMK A01 T03200167  RH  040%=      5-min Rain = 0
KCO2 242251Z 16014KT 32/17 A2966 RMK A01 T03210169  RH  040%=      5-min Rain = 0
KCO2 242252Z 16012KT 32/17 A2966 RMK A01 T03220169  RH  040%=      5-min Rain = 0
KCO2 242253Z 16014KT 32/17 A2966 RMK A01 T03220170  RH  040%=      5-min Rain = 0
KCO2 242254Z 16014G19KT 32/17 A2966 RMK A01 T03220171  RH  040%=      5-min Rain = 0
KCO2 242255Z 15016KT 32/17 A2966 RMK A01 T03220171  RH  040%=      5-min Rain = 0
KCO2 242256Z 16016G21KT 32/17 A2966 RMK A01 T03210172  RH  041%=      5-min Rain = 0
KCO2 242257Z 16014KT 32/17 A2966 RMK A01 T03190172  RH  041%=      5-min Rain = 0
KCO2 242258Z 15019G24KT 32/17 A2966 RMK A01 T03180172  RH  042%=      5-min Rain = 0
KCO2 242259Z 16017KT 32/17 A2966 RMK A01 T03160171  RH  042%=      5-min Rain = 0
KCO2 242300Z 15015KT 32/17 A2966 RMK A01 T03150172  RH  042%=      5-min Rain = 0
KCO2 242301Z 17014G19KT 32/17 A2966 RMK A01 T03150172  RH  043%=      5-min Rain = 0
KCO2 242302Z 17018KT 32/17 A2966 RMK A01 T03150170  RH  042%=      5-min Rain = 0
KCO2 242303Z 17015G20KT 32/17 A2966 RMK A01 T03150170  RH  042%=      5-min Rain = 0
KCO2 242304Z 17019KT 32/17 A2966 RMK A01 T03150171  RH  042%=      5-min Rain = 0
KCO2 242305Z 17015KT 32/17 A2966 RMK A01 T03150171  RH  042%=      5-min Rain = 0
KCO2 242306Z 17019G25KT 31/17 A2966 RMK A01 T03140171  RH  042%=      5-min Rain = 0
KCO2 242307Z 17018KT 31/17 A2966 RMK A01 T03140171  RH  042%=      5-min Rain = 0
KCO2 242308Z 16017G24KT 31/17 A2967 RMK A01 T03130171  RH  043%=      5-min Rain = 0
KCO2 242309Z 16017G22KT 31/17 A2967 RMK A01 T03120171  RH  043%=      5-min Rain = 0
KCO2 242310Z 16020KT 31/17 A2966 RMK A01 T03110171  RH  043%=      5-min Rain = 0
KCO2 242311Z 15019KT 31/17 A2966 RMK A01 T03110171  RH  043%=      5-min Rain = 0
KCO2 242312Z 16018KT 31/17 A2966 RMK A01 T03110171  RH  043%=      5-min Rain = 0
KCO2 242313Z 16019KT 31/17 A2966 RMK A01 T03100170  RH  043%=      5-min Rain = 0
KCO2 242314Z 16015G20KT 31/17 A2966 RMK A01 T03100171  RH  043%=      5-min Rain = 0
KCO2 242315Z 16019KT 31/17 A2966 RMK A01 T03090170  RH  043%=      5-min Rain = 0
KCO2 242316Z 16019G24KT 31/17 A2966 RMK A01 T03090170  RH  043%=      5-min Rain = 0
KCO2 242317Z 16015KT 31/17 A2966 RMK A01 T03090170  RH  043%=      5-min Rain = 0
KCO2 242318Z 17012KT 31/17 A2965 RMK A01 T03080170  RH  044%=      5-min Rain = 0
KCO2 242319Z 17018KT 31/17 A2965 RMK A01 T03080171  RH  044%=      5-min Rain = 0
KCO2 242320Z 18017KT 31/17 A2965 RMK A01 T03080170  RH  043%=      5-min Rain = 0
KCO2 242321Z 17018KT 31/17 A2965 RMK A01 T03080169  RH  043%=      5-min Rain = 0
KCO2 242322Z 17017KT 31/17 A2965 RMK A01 T03070168  RH  043%=      5-min Rain = 0
KCO2 242323Z 17015KT 31/17 A2965 RMK A01 T03070168  RH  043%=      5-min Rain = 0
KCO2 242324Z 18014KT 31/17 A2965 RMK A01 T03070169  RH  043%=      5-min Rain = 0
KCO2 242325Z 18016KT 31/17 A2965 RMK A01 T03060168  RH  044%=      5-min Rain = 0
KCO2 242326Z 18017KT 31/17 A2965 RMK A01 T03060167  RH  043%=      5-min Rain = 0
KCO2 242327Z 18017G22KT 31/17 A2965 RMK A01 T03060167  RH  043%=      5-min Rain = 0
KCO2 242328Z 18019KT 31/17 A2965 RMK A01 T03050166  RH  043%=      5-min Rain = 0
KCO2 242329Z 18016G21KT 31/17 A2965 RMK A01 T03050165  RH  043%=      5-min Rain = 0
KCO2 242330Z 18016G21KT 31/17 A2965 RMK A01 T03050165  RH  043%=      5-min Rain = 0
KCO2 242331Z 18018KT 30/16 A2964 RMK A01 T03040164  RH  043%=      5-min Rain = 0
KCO2 242332Z 17015G21KT 30/16 A2964 RMK A01 T03040164  RH  043%=      5-min Rain = 0
KCO2 242333Z 18016KT 30/16 A2964 RMK A01 T03040164  RH  043%=      5-min Rain = 0
KCO2 242334Z 18019KT 30/16 A2964 RMK A01 T03030163  RH  043%=      5-min Rain = 0
KCO2 242335Z 18019KT 30/16 A2964 RMK A01 T03030162  RH  043%=      5-min Rain = 0
KCO2 242336Z 18020KT 30/16 A2964 RMK A01 T03030162  RH  043%=      5-min Rain = 0
KCO2 242337Z 18016KT 30/16 A2964 RMK A01 T03030163  RH  043%=      5-min Rain = 0
KCO2 242338Z 18015KT 30/16 A2964 RMK A01 T03020163  RH  043%=      5-min Rain = 0
KCO2 242339Z 17013G19KT 30/16 A2964 RMK A01 T03020164  RH  043%=      5-min Rain = 0
KCO2 242340Z 18015G20KT 30/16 A2964 RMK A01 T03010164  RH  043%=      5-min Rain = 0
KCO2 242341Z 18013KT 30/16 A2964 RMK A01 T03010164  RH  044%=      5-min Rain = 0
KCO2 242342Z 18013G18KT 30/17 A2964 RMK A01 T03010165  RH  044%=      5-min Rain = 0
KCO2 242343Z 18015KT 30/17 A2964 RMK A01 T03010165  RH  044%=      5-min Rain = 0
KCO2 242344Z 18015G21KT 30/17 A2964 RMK A01 T03010165  RH  044%=      5-min Rain = 0
KCO2 242345Z 17018G23KT 30/16 A2964 RMK A01 T03000163  RH  044%=      5-min Rain = 0
KCO2 242346Z 17016G22KT 30/16 A2964 RMK A01 T03010163  RH  044%=      5-min Rain = 0
KCO2 242347Z 17017KT 30/16 A2964 RMK A01 T03000163  RH  043%=      5-min Rain = 0
KCO2 242348Z 17019KT 30/16 A2964 RMK A01 T03000162  RH  043%=      5-min Rain = 0
KCO2 242349Z 17017G22KT 30/16 A2964 RMK A01 T03000163  RH  043%=      5-min Rain = 0
KCO2 242350Z 17016KT 30/16 A2964 RMK A01 T03000162  RH  043%=      5-min Rain = 0
KCO2 242351Z 18017KT 30/16 A2964 RMK A01 T03000163  RH  044%=      5-min Rain = 0
KCO2 242352Z 18016G21KT 30/16 A2964 RMK A01 T02990163  RH  044%=      5-min Rain = 0
KCO2 242353Z 18014G20KT 30/16 A2964 RMK A01 T02990163  RH  044%=      5-min Rain = 0
KCO2 242354Z 17016KT 30/16 A2964 RMK A01 T02980163  RH  044%=      5-min Rain = 0
KCO2 242355Z 17017KT 30/16 A2964 RMK A01 T02980163  RH  044%=      5-min Rain = 0
KCO2 242356Z 17017KT 30/16 A2964 RMK A01 T02980164  RH  044%=      5-min Rain = 0
KCO2 242357Z 18018KT 30/16 A2964 RMK A01 T02980164  RH  044%=      5-min Rain = 0
KCO2 242358Z 17015KT 30/17 A2964 RMK A01 T02980165  RH  045%=      5-min Rain = 0
KCO2 242359Z 17015G21KT 30/17 A2964 RMK A01 T02980165  RH  045%=      5-min Rain = 0
KCO2 250000Z 17016G21KT 30/17 A2964 RMK A01 T02980165  RH  045%=      5-min Rain = 0
KCO2 250001Z 17014G19KT 30/17 A2964 RMK A01 T02980166  RH  045%=      5-min Rain = 0
KCO2 250002Z 17017G22KT 30/17 A2964 RMK A01 T02980166  RH  045%=      5-min Rain = 0
KCO2 250003Z 17018G24KT 30/17 A2964 RMK A01 T02970165  RH  045%=      5-min Rain = 0
KCO2 250004Z 18015KT 30/17 A2964 RMK A01 T02970165  RH  045%=      5-min Rain = 0
KCO2 250005Z 17013KT 30/17 A2964 RMK A01 T02970165  RH  045%=      5-min Rain = 0
KCO2 250006Z 17018G25KT 30/17 A2964 RMK A01 T02970165  RH  045%=      5-min Rain = 0
KCO2 250007Z 17019G24KT 30/17 A2964 RMK A01 T02970165  RH  045%=      5-min Rain = 0
KCO2 250008Z 17014G20KT 30/17 A2964 RMK A01 T02970165  RH  045%=      5-min Rain = 0
KCO2 250009Z 17015KT 30/17 A2964 RMK A01 T02970165  RH  045%=      5-min Rain = 0
KCO2 250010Z 17012KT 30/17 A2964 RMK A01 T02970166  RH  045%=      5-min Rain = 0
KCO2 250011Z 17011KT 30/17 A2964 RMK A01 T02970166  RH  045%=      5-min Rain = 0
KCO2 250012Z 17016KT 30/17 A2964 RMK A01 T02960166  RH  045%=      5-min Rain = 0
KCO2 250013Z 17012KT 30/17 A2964 RMK A01 T02960166  RH  045%=      5-min Rain = 0
KCO2 250014Z 17012KT 30/17 A2964 RMK A01 T02960166  RH  045%=      5-min Rain = 0
KCO2 250015Z 16012G19KT 30/17 A2964 RMK A01 T02960166  RH  046%=      5-min Rain = 0
KCO2 250016Z 17018G25KT 30/17 A2964 RMK A01 T02960166  RH  046%=      5-min Rain = 0
KCO2 250017Z 17019G24KT 30/17 A2964 RMK A01 T02960165  RH  045%=      5-min Rain = 0
KCO2 250018Z 17017KT 30/17 A2964 RMK A01 T02960165  RH  045%=      5-min Rain = 0
KCO2 250019Z 17024G39KT 30/17 A2965 RMK A01 T02960165  RH  045%=      5-min Rain = 0
KCO2 250020Z 18038G45KT 29/15 A2967 RMK A01 T02910149  RH  042%=      5-min Rain = 0
KCO2 250021Z 18034G41KT 27/14 A2967 RMK A01 T02690138  RH  045%=      5-min Rain = 0
KCO2 250022Z 18031G40KT 25/14 A2967 RMK A01 T02540137  RH  048%=      5-min Rain = 0
KCO2 250023Z 20032G42KT 25/13 A2967 RMK A01 T02460134  RH  050%=      5-min Rain = 0
KCO2 250024Z 19037G46KT 24/13 A2967 RMK A01 T02410131  RH  050%=      5-min Rain = 0
KCO2 250025Z 20034G41KT 24/13 A2967 RMK A01 T02390127  RH  050%=      5-min Rain = 0
KCO2 250026Z 20037G46KT 24/12 A2967 RMK A01 T02370124  RH  049%=      5-min Rain = 0
KCO2 250027Z 21034G42KT 24/12 A2967 RMK A01 T02380118  RH  047%=      5-min Rain = 0
KCO2 250028Z 21034G43KT 24/11 A2967 RMK A01 T02390113  RH  045%=      5-min Rain = 0
KCO2 250029Z 21029G36KT 24/11 A2968 RMK A01 T02390110  RH  044%=      5-min Rain = 0
KCO2 250030Z 21032G40KT 24/11 A2968 RMK A01 T02380109  RH  044%=      5-min Rain = 0
KCO2 250031Z 21027G36KT 24/11 A2968 RMK A01 T02360110  RH  045%=      5-min Rain = 0
KCO2 250032Z 21028G33KT 23/11 A2968 RMK A01 T02340111  RH  046%=      5-min Rain = 0
KCO2 250033Z 21022G27KT 23/11 A2969 RMK A01 T02320112  RH  047%=      5-min Rain = 0
KCO2 250034Z 22018G24KT 23/11 A2969 RMK A01 T02310113  RH  047%=      5-min Rain = 0
KCO2 250035Z 21024G30KT 23/11 A2969 RMK A01 T02300113  RH  047%=      5-min Rain = 0
KCO2 250036Z 21020G27KT 23/11 A2969 RMK A01 T02300112  RH  047%=      5-min Rain = 0
KCO2 250037Z 21025G32KT 23/11 A2969 RMK A01 T02290111  RH  047%=      5-min Rain = 0
KCO2 250038Z 21023G28KT 23/11 A2969 RMK A01 T02290111  RH  047%=      5-min Rain = 0
KCO2 250039Z 21022G27KT 23/11 A2968 RMK A01 T02280111  RH  047%=      5-min Rain = 0
KCO2 250040Z 20020G26KT 23/11 A2968 RMK A01 T02280109  RH  047%=      5-min Rain = 0
KCO2 250041Z 20019G24KT 23/11 A2968 RMK A01 T02280109  RH  047%=      5-min Rain = 0
KCO2 250042Z 20021KT 23/11 A2968 RMK A01 T02280107  RH  047%=      5-min Rain = 0
KCO2 250043Z 19020KT 23/11 A2968 RMK A01 T02280108  RH  046%=      5-min Rain = 0
KCO2 250044Z 19020KT 23/11 A2967 RMK A01 T02280108  RH  047%=      5-min Rain = 0
KCO2 250045Z 19017G25KT 23/11 A2967 RMK A01 T02280109  RH  047%=      5-min Rain = 0
KCO2 250046Z 19017G22KT 23/11 A2967 RMK A01 T02270108  RH  047%=      5-min Rain = 0
KCO2 250047Z 19014KT 23/11 A2967 RMK A01 T02270109  RH  047%=      5-min Rain = 0
KCO2 250048Z 20017G23KT 23/11 A2967 RMK A01 T02270108  RH  047%=      5-min Rain = 0
KCO2 250049Z 19014G19KT 23/11 A2967 RMK A01 T02270110  RH  047%=      5-min Rain = 0
KCO2 250050Z 19015G20KT 23/11 A2967 RMK A01 T02270112  RH  048%=      5-min Rain = 0
KCO2 250051Z 19014KT 23/11 A2967 RMK A01 T02260112  RH  048%=      5-min Rain = 0
KCO2 250052Z 19012KT 23/11 A2967 RMK A01 T02250113  RH  049%=      5-min Rain = 0
KCO2 250053Z 19014G20KT 22/11 A2967 RMK A01 T02240112  RH  049%=      5-min Rain = 0
KCO2 250054Z 18012KT 22/11 A2967 RMK A01 T02240112  RH  049%=      5-min Rain = 0
KCO2 250055Z 18013G18KT 22/11 A2967 RMK A01 T02240110  RH  048%=      5-min Rain = 0
KCO2 250056Z 18012KT 23/11 A2967 RMK A01 T02250109  RH  048%=      5-min Rain = 0
KCO2 250057Z 18014G19KT 23/11 A2967 RMK A01 T02250108  RH  047%=      5-min Rain = 0
KCO2 250058Z 18013KT 23/11 A2967 RMK A01 T02270107  RH  047%=      5-min Rain = 0
KCO2 250059Z 17013G18KT 23/11 A2967 RMK A01 T02270108  RH  047%=      5-min Rain = 0
KCO2 250100Z 18013KT 23/11 A2967 RMK A01 T02270108  RH  047%=      5-min Rain = 0
KCO2 250101Z 19012KT 23/11 A2967 RMK A01 T02270109  RH  047%=      5-min Rain = 0
KCO2 250102Z 19013G19KT 23/11 A2967 RMK A01 T02270108  RH  047%=      5-min Rain = 0
KCO2 250103Z 19014KT 23/11 A2968 RMK A01 T02280106  RH  046%=      5-min Rain = 0
KCO2 250104Z 19016G21KT 23/11 A2967 RMK A01 T02290106  RH  046%=      5-min Rain = 0
KCO2 250105Z 19016KT 23/11 A2967 RMK A01 T02300105  RH  045%=      5-min Rain = 0
KCO2 250106Z 19012G17KT 23/11 A2968 RMK A01 T02310105  RH  045%=      5-min Rain = 0
KCO2 250107Z 18015KT 23/11 A2967 RMK A01 T02310105  RH  045%=      5-min Rain = 0
KCO2 250108Z 19015KT 23/10 A2968 RMK A01 T02320104  RH  044%=      5-min Rain = 0
KCO2 250109Z 19014KT 23/10 A2968 RMK A01 T02320104  RH  044%=      5-min Rain = 0
KCO2 250110Z 19015G21KT 23/10 A2968 RMK A01 T02330103  RH  044%=      5-min Rain = 0
KCO2 250111Z 19013KT 23/10 A2968 RMK A01 T02340103  RH  044%=      5-min Rain = 0
KCO2 250112Z 19015KT 23/10 A2968 RMK A01 T02340103  RH  043%=      5-min Rain = 0
KCO2 250113Z 19016KT 24/10 A2969 RMK A01 T02350103  RH  043%=      5-min Rain = 0
KCO2 250114Z 19013KT 24/10 A2969 RMK A01 T02350102  RH  043%=      5-min Rain = 0
KCO2 250115Z 19014KT 24/10 A2969 RMK A01 T02360102  RH  043%=      5-min Rain = 0
KCO2 250116Z 19015KT 24/10 A2969 RMK A01 T02360101  RH  043%=      5-min Rain = 0
KCO2 250117Z 19015G20KT 24/10 A2969 RMK A01 T02360101  RH  042%=      5-min Rain = 0
KCO2 250118Z 19014G20KT 24/10 A2969 RMK A01 T02370101  RH  042%=      5-min Rain = 0
KCO2 250119Z 19015KT 24/10 A2969 RMK A01 T02370100  RH  042%=      5-min Rain = 0
KCO2 250120Z 20011KT 24/10 A2969 RMK A01 T02380100  RH  042%=      5-min Rain = 0
KCO2 250121Z 20014G20KT 24/10 A2969 RMK A01 T02380101  RH  042%=      5-min Rain = 0
KCO2 250122Z 20014G19KT 24/10 A297 RMK A01 T02380102  RH  042%=      5-min Rain = 0
KCO2 250123Z 21015G21KT 24/10 A297 RMK A01 T02380102  RH  042%=      5-min Rain = 0
KCO2 250124Z 21012KT 24/10 A297 RMK A01 T02380103  RH  043%=      5-min Rain = 0
KCO2 250125Z 22012KT 24/11 A297 RMK A01 T02370105  RH  043%=      5-min Rain = 0
KCO2 250126Z 22014KT 24/11 A2971 RMK A01 T02370106  RH  044%=      5-min Rain = 0
KCO2 250127Z 23014KT 24/11 A2971 RMK A01 T02360105  RH  044%=      5-min Rain = 0
KCO2 250128Z 23015G20KT 24/11 A2971 RMK A01 T02360105  RH  044%=      5-min Rain = 0
KCO2 250129Z 23015G24KT 24/11 A2972 RMK A01 T02360106  RH  044%=      5-min Rain = 0
KCO2 250130Z 23018G23KT 24/11 A2972 RMK A01 T02350108  RH  045%=      5-min Rain = 0
KCO2 250131Z 22017G22KT 23/11 A2972 RMK A01 T02330110  RH  046%=      5-min Rain = 0
KCO2 250132Z 21019G25KT 23/11 A2972 RMK A01 T02310113  RH  047%=      5-min Rain = 0
KCO2 250133Z 22016G22KT 23/12 A2972 RMK A01 T02270115  RH  049%=      5-min Rain = 0
KCO2 250134Z 22017KT 23/12 A2973 RMK A01 T02250115  RH  050%=      5-min Rain = 0
KCO2 250135Z 22016KT 22/12 A2973 RMK A01 T02240115  RH  050%=      5-min Rain = 0
KCO2 250136Z 23014G19KT 22/12 A2973 RMK A01 T02230115  RH  050%=      5-min Rain = 0
KCO2 250137Z 24012KT 22/12 A2973 RMK A01 T02230115  RH  050%=      5-min Rain = 0
KCO2 250138Z 23015G21KT 22/11 A2973 RMK A01 T02230114  RH  050%=      5-min Rain = 0
KCO2 250139Z 22012KT 22/12 A2973 RMK A01 T02230116  RH  050%=      5-min Rain = 0
KCO2 250140Z 23011KT 22/12 A2973 RMK A01 T02230116  RH  051%=      5-min Rain = 0
KCO2 250141Z 22011G16KT 22/11 A2973 RMK A01 T02220114  RH  050%=      5-min Rain = 0
KCO2 250142Z 22015KT 22/11 A2973 RMK A01 T02220112  RH  050%=      5-min Rain = 0
KCO2 250143Z 22015G21KT 22/11 A2973 RMK A01 T02230113  RH  050%=      5-min Rain = 0
KCO2 250144Z 23011KT 22/12 A2973 RMK A01 T02230116  RH  051%=      5-min Rain = 0
KCO2 250145Z 22011KT 22/12 A2973 RMK A01 T02220117  RH  051%=      5-min Rain = 0
KCO2 250146Z 21011KT 22/12 A2973 RMK A01 T02210117  RH  052%=      5-min Rain = 0
KCO2 250147Z 22010KT 22/12 A2973 RMK A01 T02200117  RH  052%=      5-min Rain = 0
KCO2 250148Z 21011KT 22/12 A2973 RMK A01 T02200118  RH  052%=      5-min Rain = 0
KCO2 250149Z 22009KT 22/12 A2973 RMK A01 T02190119  RH  053%=      5-min Rain = 0
KCO2 250150Z 21009KT 22/12 A2972 RMK A01 T02180120  RH  054%=      5-min Rain = 0
KCO2 250151Z 21012KT 22/12 A2972 RMK A01 T02180117  RH  053%=      5-min Rain = 0
KCO2 250152Z 21013KT 22/12 A2972 RMK A01 T02180117  RH  053%=      5-min Rain = 0
KCO2 250153Z 21012KT 22/12 A2972 RMK A01 T02190116  RH  052%=      5-min Rain = 0
KCO2 250154Z 21011KT 22/12 A2972 RMK A01 T02200117  RH  052%=      5-min Rain = 0
KCO2 250155Z 21010KT 22/12 A2972 RMK A01 T02200116  RH  052%=      5-min Rain = 0
KCO2 250156Z 20010KT 22/12 A2971 RMK A01 T02200116  RH  052%=      5-min Rain = 0
KCO2 250157Z 21009KT 22/12 A2971 RMK A01 T02200115  RH  051%=      5-min Rain = 0
KCO2 250158Z 20011KT 22/11 A2971 RMK A01 T02210114  RH  051%=      5-min Rain = 0
KCO2 250159Z 20011KT 22/11 A2971 RMK A01 T02210114  RH  050%=      5-min Rain = 0
KCO2 250200Z 21011KT 22/12 A2971 RMK A01 T02220115  RH  051%=      5-min Rain = 0
KCO2 250201Z 20010KT 22/11 A2971 RMK A01 T02220114  RH  050%=      5-min Rain = 0
KCO2 250202Z 20010KT 22/11 A297 RMK A01 T02220114  RH  050%=      5-min Rain = 0
KCO2 250203Z 20011KT 22/11 A297 RMK A01 T02220114  RH  050%=      5-min Rain = 0
KCO2 250204Z 20011KT 22/11 A297 RMK A01 T02220113  RH  050%=      5-min Rain = 0
KCO2 250205Z 19011KT 22/11 A297 RMK A01 T02220113  RH  050%=      5-min Rain = 0
KCO2 250206Z 19013KT 22/11 A297 RMK A01 T02220113  RH  050%=      5-min Rain = 0
KCO2 250207Z 19011KT 22/11 A2969 RMK A01 T02230114  RH  050%=      5-min Rain = 0
KCO2 250208Z 19011KT 22/11 A2969 RMK A01 T02230114  RH  050%=      5-min Rain = 0
KCO2 250209Z 19011KT 22/11 A2969 RMK A01 T02220114  RH  050%=      5-min Rain = 0
KCO2 250210Z 18011KT 22/12 A2969 RMK A01 T02220116  RH  051%=      5-min Rain = 0
KCO2 250211Z 18011KT 22/12 A2969 RMK A01 T02210115  RH  051%=      5-min Rain = 0
KCO2 250212Z 18011KT 22/12 A2969 RMK A01 T02210116  RH  051%=      5-min Rain = 0
KCO2 250213Z 18009KT 22/12 A2969 RMK A01 T02200116  RH  052%=      5-min Rain = 0
KCO2 250214Z 17007KT 22/12 A2969 RMK A01 T02190117  RH  052%=      5-min Rain = 0
KCO2 250215Z 17008KT 22/12 A2969 RMK A01 T02180117  RH  053%=      5-min Rain = 0
KCO2 250216Z 18008KT 22/12 A2969 RMK A01 T02170117  RH  053%=      5-min Rain = 0
KCO2 250217Z 20009KT 22/12 A2969 RMK A01 T02170116  RH  053%=      5-min Rain = 0
KCO2 250218Z 20009KT 22/12 A2969 RMK A01 T02170115  RH  052%=      5-min Rain = 0
KCO2 250219Z 22006KT 22/12 A2969 RMK A01 T02170115  RH  052%=      5-min Rain = 0
KCO2 250220Z 24006KT 22/12 A297 RMK A01 T02160116  RH  053%=      5-min Rain = 0
KCO2 250221Z 26006KT 22/12 A297 RMK A01 T02170117  RH  053%=      5-min Rain = 0
KCO2 250222Z 28006KT 22/12 A297 RMK A01 T02160117  RH  053%=      5-min Rain = 0
KCO2 250223Z 30006KT 22/12 A297 RMK A01 T02160116  RH  053%=      5-min Rain = 0
KCO2 250224Z 31006KT 22/12 A297 RMK A01 T02150116  RH  053%=      5-min Rain = 0
KCO2 250225Z 29005KT 22/12 A297 RMK A01 T02150116  RH  053%=      5-min Rain = 0
KCO2 250226Z 30005KT 22/12 A297 RMK A01 T02150116  RH  053%=      5-min Rain = 0
KCO2 250227Z 30004KT 22/12 A297 RMK A01 T02150116  RH  053%=      5-min Rain = 0
KCO2 250228Z 31004KT 21/12 A297 RMK A01 T02140115  RH  053%=      5-min Rain = 0
KCO2 250229Z 34002KT 22/12 A297 RMK A01 T02150115  RH  053%=      5-min Rain = 0
KCO2 250230Z 03002KT 21/12 A2969 RMK A01 T02140115  RH  053%=      5-min Rain = 0
KCO2 250231Z 07003KT 21/11 A2969 RMK A01 T02140114  RH  053%=      5-min Rain = 0
KCO2 250232Z 07005KT 22/11 A2969 RMK A01 T02150113  RH  052%=      5-min Rain = 0
KCO2 250233Z 06006KT 22/12 A2969 RMK A01 T02160116  RH  053%=      5-min Rain = 0
KCO2 250234Z 06007KT 22/12 A2968 RMK A01 T02150117  RH  054%=      5-min Rain = 0
KCO2 250235Z 06006KT 21/12 A2968 RMK A01 T02140118  RH  054%=      5-min Rain = 0
KCO2 250236Z 06007KT 21/12 A2968 RMK A01 T02130118  RH  055%=      5-min Rain = 0
KCO2 250237Z 05007KT 21/12 A2968 RMK A01 T02120119  RH  055%=      5-min Rain = 0
KCO2 250238Z 06008KT 21/12 A2968 RMK A01 T02110120  RH  056%=      5-min Rain = 0
KCO2 250239Z 06009KT 21/12 A2968 RMK A01 T02100121  RH  057%=      5-min Rain = 0
KCO2 250240Z 06010KT 21/12 A2968 RMK A01 T02090124  RH  058%=      5-min Rain = 0
KCO2 250241Z 06009KT 21/13 A2968 RMK A01 T02080126  RH  060%=      5-min Rain = 0
KCO2 250242Z 06010KT 21/13 A2968 RMK A01 T02060128  RH  061%=      5-min Rain = 0
KCO2 250243Z 06009KT 21/13 A2969 RMK A01 T02060129  RH  061%=      5-min Rain = 0
KCO2 250244Z 06008KT 21/13 A2969 RMK A01 T02050130  RH  062%=      5-min Rain = 0
KCO2 250245Z 06007KT 21/13 A2969 RMK A01 T02050130  RH  062%=      5-min Rain = 0
KCO2 250246Z 06006KT 21/13 A2969 RMK A01 T02050130  RH  062%=      5-min Rain = 0
KCO2 250247Z 05006KT 21/13 A2969 RMK A01 T02050130  RH  062%=      5-min Rain = 0
KCO2 250248Z 03007KT 21/13 A2969 RMK A01 T02050129  RH  062%=      5-min Rain = 0
KCO2 250249Z 02009KT 21/13 A2969 RMK A01 T02050129  RH  062%=      5-min Rain = 0
KCO2 250250Z 02011KT 21/13 A2969 RMK A01 T02050130  RH  062%=      5-min Rain = 0
KCO2 250251Z 02012KT 21/13 A2969 RMK A01 T02050130  RH  062%=      5-min Rain = 0
KCO2 250252Z 03014KT 21/13 A2969 RMK A01 T02050127  RH  061%=      5-min Rain = 0
KCO2 250253Z 03015KT 21/12 A2969 RMK A01 T02060124  RH  059%=      5-min Rain = 0
KCO2 250254Z 04016KT 21/12 A2969 RMK A01 T02080122  RH  058%=      5-min Rain = 0
KCO2 250255Z 04017KT 21/12 A2968 RMK A01 T02090122  RH  057%=      5-min Rain = 0
KCO2 250256Z 06018KT 21/12 A2967 RMK A01 T02100122  RH  057%=      5-min Rain = 0
KCO2 250257Z 06018KT 21/12 A2966 RMK A01 T02110123  RH  057%=      5-min Rain = 0
KCO2 250258Z 07019KT 21/13 A2965 RMK A01 T02110125  RH  058%=      5-min Rain = 0
KCO2 250259Z 07019KT 21/13 A2965 RMK A01 T02110126  RH  058%=      5-min Rain = 0
KCO2 250300Z 08016KT 21/13 A2964 RMK A01 T02100127  RH  059%=      5-min Rain = 0
KCO2 250301Z 08017KT 21/13 A2964 RMK A01 T02090128  RH  060%=      5-min Rain = 0
KCO2 250302Z 08018KT 21/13 A2963 RMK A01 T02090129  RH  060%=      5-min Rain = 0
KCO2 250303Z 08016KT 21/13 A2963 RMK A01 T02080130  RH  061%=      5-min Rain = 0
KCO2 250304Z 09017KT 21/13 A2963 RMK A01 T02070129  RH  061%=      5-min Rain = 0
KCO2 250305Z 09014KT 21/13 A2963 RMK A01 T02080128  RH  060%=      5-min Rain = 0
KCO2 250306Z 08015KT 21/13 A2963 RMK A01 T02070128  RH  061%=      5-min Rain = 0
KCO2 250307Z 08013KT 21/13 A2963 RMK A01 T02080129  RH  061%=      5-min Rain = 0
KCO2 250308Z 08012KT 21/13 A2963 RMK A01 T02080129  RH  061%=      5-min Rain = 0
KCO2 250309Z 08013KT 21/13 A2963 RMK A01 T02070127  RH  060%=      5-min Rain = 0
KCO2 250310Z 08011KT 21/13 A2963 RMK A01 T02070127  RH  060%=      5-min Rain = 0
KCO2 250311Z 08014KT 21/13 A2963 RMK A01 T02070125  RH  059%=      5-min Rain = 0
KCO2 250312Z 08013KT 21/12 A2963 RMK A01 T02080124  RH  059%=      5-min Rain = 0
KCO2 250313Z 09012KT 21/12 A2963 RMK A01 T02090123  RH  058%=      5-min Rain = 0
KCO2 250314Z 08010KT 21/12 A2963 RMK A01 T02090123  RH  058%=      5-min Rain = 0
KCO2 250315Z 08010KT 21/12 A2963 RMK A01 T02090122  RH  057%=      5-min Rain = 0
KCO2 250316Z 08010KT 21/12 A2963 RMK A01 T02100123  RH  058%=      5-min Rain = 0
KCO2 250317Z 08012KT 21/12 A2964 RMK A01 T02100123  RH  058%=      5-min Rain = 0
KCO2 250318Z 08011KT 21/12 A2964 RMK A01 T02090123  RH  058%=      5-min Rain = 0
KCO2 250319Z 08011KT 21/13 A2964 RMK A01 T02090125  RH  058%=      5-min Rain = 0
KCO2 250320Z 08013KT 21/13 A2965 RMK A01 T02090126  RH  059%=      5-min Rain = 0
KCO2 250321Z 08015KT 21/13 A2967 RMK A01 T02080127  RH  060%=      5-min Rain = 0
KCO2 250322Z 07018G23KT 21/13 A2968 RMK A01 T02080129  RH  061%=      5-min Rain = 0
KCO2 250323Z 06022G27KT 21/14 A2968 RMK A01 T02060139  RH  065%=      5-min Rain = 0
KCO2 250324Z 06021G26KT 20/14 A2969 RMK A01 T02030143  RH  068%=      5-min Rain = 0
KCO2 250325Z 05021G31KT 20/15 A2969 RMK A01 T02010145  RH  070%=      5-min Rain = 0
KCO2 250326Z 05023G33KT 20/15 A297 RMK A01 T02000145  RH  071%=      5-min Rain = 0
KCO2 250327Z 05021G26KT 20/15 A2971 RMK A01 T01990146  RH  071%=      5-min Rain = 0
KCO2 250328Z 05022G28KT 20/15 A2971 RMK A01 T01980146  RH  072%=      5-min Rain = 0
KCO2 250329Z 05025G32KT 20/15 A2972 RMK A01 T01980145  RH  072%=      5-min Rain = 0
KCO2 250330Z 05031G38KT 20/15 A2972 RMK A01 T01970145  RH  072%=      5-min Rain = 0
KCO2 250331Z 06027G37KT 20/15 A2971 RMK A01 T01960146  RH  073%=      5-min Rain = 0
KCO2 250332Z 06027G33KT 19/15 A2971 RMK A01 T01940146  RH  074%=      5-min Rain = 0
KCO2 250333Z 06026G35KT 19/15 A2971 RMK A01 T01930147  RH  074%=      5-min Rain = 0
KCO2 250334Z 06026G31KT 19/15 A2972 RMK A01 T01920146  RH  075%=      5-min Rain = 0
KCO2 250335Z 06028KT 19/15 A2972 RMK A01 T01930147  RH  075%=      5-min Rain = 0
KCO2 250336Z 05019G24KT 19/15 A2972 RMK A01 T01920147  RH  075%=      5-min Rain = 0
KCO2 250337Z 06018G24KT 19/15 A2973 RMK A01 T01920147  RH  075%=      5-min Rain = 0
KCO2 250338Z 05023G30KT 19/15 A2973 RMK A01 T01910147  RH  075%=      5-min Rain = 0
KCO2 250339Z 05023G30KT 19/15 A2973 RMK A01 T01910146  RH  075%=      5-min Rain = 0
KCO2 250340Z 05024G29KT 19/15 A2974 RMK A01 T01910146  RH  075%=      5-min Rain = 0
KCO2 250341Z 05023G31KT 19/15 A2974 RMK A01 T01910147  RH  075%=      5-min Rain = 0
KCO2 250342Z 06022G31KT 19/15 A2974 RMK A01 T01910147  RH  076%=      5-min Rain = 0
KCO2 250343Z 06027G33KT 19/15 A2974 RMK A01 T01910147  RH  076%=      5-min Rain = 0
KCO2 250344Z 06021G26KT 19/15 A2973 RMK A01 T01900146  RH  076%=      5-min Rain = 0
KCO2 250345Z 06021G27KT 19/15 A2973 RMK A01 T01900147  RH  076%=      5-min Rain = 0
KCO2 250346Z 06024G32KT 19/15 A2973 RMK A01 T01900146  RH  076%=      5-min Rain = 0
KCO2 250347Z 06024G31KT 19/15 A2973 RMK A01 T01900145  RH  075%=      5-min Rain = 0
KCO2 250348Z 06023KT 19/15 A2974 RMK A01 T01900145  RH  075%=      5-min Rain = 0
KCO2 250349Z 06024G30KT 19/14 A2974 RMK A01 T01900144  RH  075%=      5-min Rain = 0
KCO2 250350Z 06024G29KT 19/14 A2974 RMK A01 T01900144  RH  075%=      5-min Rain = 0
KCO2 250351Z 06021G27KT 19/14 A2974 RMK A01 T01900143  RH  074%=      5-min Rain = 0
KCO2 250352Z 05020G25KT 19/14 A2975 RMK A01 T01910143  RH  074%=      5-min Rain = 0
KCO2 250353Z 06024G29KT 19/14 A2975 RMK A01 T01910143  RH  074%=      5-min Rain = 0
KCO2 250354Z 06025G30KT 19/14 A2974 RMK A01 T01920142  RH  073%=      5-min Rain = 0
KCO2 250355Z 06023G30KT 19/14 A2974 RMK A01 T01920142  RH  073%=      5-min Rain = 0
KCO2 250356Z 06021G27KT 19/14 A2974 RMK A01 T01920143  RH  073%=      5-min Rain = 0
KCO2 250357Z 06024G33KT 19/14 A2974 RMK A01 T01920143  RH  073%=      5-min Rain = 0
KCO2 250358Z 06025KT 19/14 A2974 RMK A01 T01920143  RH  073%=      5-min Rain = 0
KCO2 250359Z 06019KT 19/14 A2974 RMK A01 T01920144  RH  073%=      5-min Rain = 0
KCO2 250400Z 06022G27KT 19/14 A2975 RMK A01 T01920144  RH  074%=      5-min Rain = 0
KCO2 250401Z 05019G27KT 19/14 A2975 RMK A01 T01910143  RH  074%=      5-min Rain = 0
KCO2 250402Z 06024KT 19/14 A2975 RMK A01 T01910143  RH  074%=      5-min Rain = 0
KCO2 250403Z 06024KT 19/14 A2975 RMK A01 T01910143  RH  074%=      5-min Rain = 0
KCO2 250404Z 06021G28KT 19/14 A2975 RMK A01 T01910143  RH  074%=      5-min Rain = 0
KCO2 250405Z 06020G27KT 19/14 A2976 RMK A01 T01920144  RH  074%=      5-min Rain = 0
KCO2 250406Z 06019G26KT 19/14 A2976 RMK A01 T01920144  RH  074%=      5-min Rain = 0
KCO2 250407Z 06020KT 19/15 A2977 RMK A01 T01920145  RH  074%=      5-min Rain = 0
KCO2 250408Z 06019KT 19/15 A2977 RMK A01 T01910145  RH  075%=      5-min Rain = 0
KCO2 250409Z 06017G24KT 19/15 A2977 RMK A01 T01910145  RH  075%=      5-min Rain = 0
KCO2 250410Z 07020G25KT 19/15 A2977 RMK A01 T01900145  RH  075%=      5-min Rain = 0
KCO2 250411Z 07021G26KT 19/15 A2977 RMK A01 T01910146  RH  075%=      5-min Rain = 0
KCO2 250412Z 07017KT 19/15 A2977 RMK A01 T01900146  RH  075%=      5-min Rain = 0
KCO2 250413Z 06013G18KT 19/15 A2977 RMK A01 T01900146  RH  075%=      5-min Rain = 0
KCO2 250414Z 07016G21KT 19/15 A2977 RMK A01 T01900146  RH  076%=      5-min Rain = 0
KCO2 250415Z 06019KT 19/15 A2977 RMK A01 T01900146  RH  076%=      5-min Rain = 0
KCO2 250416Z 06019KT 19/15 A2978 RMK A01 T01900146  RH  076%=      5-min Rain = 0
KCO2 250417Z 06022G30KT 19/15 A2978 RMK A01 T01900146  RH  076%=      5-min Rain = 0
KCO2 250418Z 06025G30KT 19/15 A2978 RMK A01 T01900146  RH  076%=      5-min Rain = 0
KCO2 250419Z 06020KT 19/15 A2978 RMK A01 T01900146  RH  075%=      5-min Rain = 0
KCO2 250420Z 07024G30KT 19/15 A2978 RMK A01 T01900145  RH  075%=      5-min Rain = 0
KCO2 250421Z 07023KT 19/15 A2978 RMK A01 T01900145  RH  075%=      5-min Rain = 0
KCO2 250422Z 07024G29KT 19/14 A2978 RMK A01 T01900144  RH  075%=      5-min Rain = 0
KCO2 250423Z 06027G32KT 19/14 A2978 RMK A01 T01900144  RH  075%=      5-min Rain = 0
KCO2 250424Z 06020G25KT 19/14 A2978 RMK A01 T01910144  RH  074%=      5-min Rain = 0
KCO2 250425Z 06019KT 19/15 A2978 RMK A01 T01910145  RH  075%=      5-min Rain = 0
KCO2 250426Z 07018G26KT 19/15 A2978 RMK A01 T01910145  RH  075%=      5-min Rain = 0
KCO2 250427Z 08017G22KT 19/14 A2978 RMK A01 T01900144  RH  075%=      5-min Rain = 0
KCO2 250428Z 07018KT 19/14 A2979 RMK A01 T01910144  RH  075%=      5-min Rain = 0
KCO2 250429Z 07020KT 19/14 A2979 RMK A01 T01910144  RH  074%=      5-min Rain = 0
KCO2 250430Z 07019KT 19/14 A2979 RMK A01 T01910144  RH  074%=      5-min Rain = 0
KCO2 250431Z 07021KT 19/14 A2979 RMK A01 T01910143  RH  074%=      5-min Rain = 0
KCO2 250432Z 07017KT 19/14 A2979 RMK A01 T01910142  RH  073%=      5-min Rain = 0
KCO2 250433Z 08017KT 19/14 A2979 RMK A01 T01910142  RH  073%=      5-min Rain = 0
KCO2 250434Z 08019KT 19/14 A2979 RMK A01 T01910142  RH  073%=      5-min Rain = 0
KCO2 250435Z 08015KT 19/14 A2979 RMK A01 T01920141  RH  073%=      5-min Rain = 0
KCO2 250436Z 08019KT 19/14 A2979 RMK A01 T01920141  RH  072%=      5-min Rain = 0
KCO2 250437Z 08020KT 19/14 A2979 RMK A01 T01920141  RH  072%=      5-min Rain = 0
KCO2 250438Z 08019KT 19/14 A2979 RMK A01 T01920140  RH  072%=      5-min Rain = 0
KCO2 250439Z 07016G21KT 19/14 A2979 RMK A01 T01930140  RH  072%=      5-min Rain = 0
KCO2 250440Z 07016G24KT 19/14 A2979 RMK A01 T01920139  RH  071%=      5-min Rain = 0
KCO2 250441Z 08018KT 19/14 A2979 RMK A01 T01920139  RH  071%=      5-min Rain = 0
KCO2 250442Z 07016G21KT 19/14 A2978 RMK A01 T01920139  RH  071%=      5-min Rain = 0
KCO2 250443Z 08019G26KT 19/14 A2978 RMK A01 T01920139  RH  071%=      5-min Rain = 0
KCO2 250444Z 08018KT 19/14 A2978 RMK A01 T01920139  RH  071%=      5-min Rain = 0
KCO2 250445Z 08017KT 19/14 A2978 RMK A01 T01920139  RH  071%=      5-min Rain = 0
KCO2 250446Z 07017KT 19/14 A2978 RMK A01 T01930139  RH  071%=      5-min Rain = 0
KCO2 250447Z 08016KT 19/14 A2978 RMK A01 T01920139  RH  071%=      5-min Rain = 0
KCO2 250448Z 07019KT 19/14 A2978 RMK A01 T01920139  RH  071%=      5-min Rain = 0
KCO2 250449Z 07017KT 19/14 A2978 RMK A01 T01920138  RH  071%=      5-min Rain = 0
KCO2 250450Z 07015KT 19/14 A2978 RMK A01 T01920137  RH  071%=      5-min Rain = 0
KCO2 250451Z 07014KT 19/14 A2978 RMK A01 T01920137  RH  070%=      5-min Rain = 0
KCO2 250452Z 07017G22KT 19/14 A2978 RMK A01 T01920136  RH  070%=      5-min Rain = 0
KCO2 250453Z 07016G21KT 19/14 A2978 RMK A01 T01920135  RH  069%=      5-min Rain = 0
KCO2 250454Z 08017KT 19/13 A2978 RMK A01 T01920134  RH  069%=      5-min Rain = 0
KCO2 250455Z 08015KT 19/13 A2978 RMK A01 T01920134  RH  069%=      5-min Rain = 0
KCO2 250456Z 08013KT 19/13 A2978 RMK A01 T01920134  RH  069%=      5-min Rain = 0
KCO2 250457Z 08014KT 19/13 A2978 RMK A01 T01920133  RH  069%=      5-min Rain = 0
KCO2 250458Z 08015KT 19/13 A2978 RMK A01 T01920133  RH  069%=      5-min Rain = 0
KCO2 250459Z 08014KT 19/13 A2978 RMK A01 T01930133  RH  068%=      5-min Rain = 0

Page generated in 0.1159 seconds.